73110-Advertising agencies

73110-Advertising agencies



Company Registered Address Company Number YE Date Revenue GBP Net profit GBP Other SIC codes
IPG HOLDINGS (UK) LIMITED 3 GROSVENOR GARDENS, LONDON, SW1W 0BD 02353279 2017-12-31 1,596,859,000 4,294,000 70100-Activities of head offices
OMNICOM MEDIA GROUP UK LIMITED BANKSIDE 3, 90 - 100 SOUTHWARK STREET, LONDON, ENGLAND, SE1 0SW 04431736 2017-12-31 1,525,736,896 41,041,594
DENTSU AEGIS LONDON LIMITED 10 TRITON STREET, REGENTS PLACE, LONDON, NW1 3BF 01939690 2017-12-31 1,436,670,000 -42,666,000
MEDIACOM UK LIMITED 124 THEOBALDS ROAD, LONDON, WC1X 8RX 01199309 2017-12-31 1,131,479,000 14,221,000
PG MEDIA SERVICES LIMITED 1ST FLOOR 2 TELEVISION CENTRE, 101 WOOD LANE, LONDON, ENGLAND AND WALES, UNITED KINGDOM, W12 7FR 00926566 2017-12-31 672,815,000 11,546,000
WAVEMAKER LIMITED SEA CONTAINERS, 18 UPPER GROUND, LONDON, UNITED KINGDOM, SE1 9ET 04078547 2017-12-31 477,971,000 5,684,000
ZENITH UK (MEDIA) LIMITED 1ST FLOOR 2 TELEVISION CENTRE, 101 WOOD LANE, LONDON, ENGLAND AND WALES, UNITED KINGDOM, W12 7FR 01921320 2017-12-31 448,882,000 1,946,000
PHD MEDIA LIMITED THE TELEPHONE EXCHANGE 5 NORTH CRESCENT, CHENIES STREET, LONDON, WC1E 7PH 02423952 2015-12-31 443,006,795 6,888,360
JCDECAUX UK LIMITED 991 GREAT WEST ROAD, BRENTFORD, MIDDLESEX, TW8 9DN 01679670 2017-12-31 356,989,000 15,241,000
MEDIABRANDS LIMITED 3 GROSVENOR GARDENS, LONDON, SW1W 0BD 00773961 2017-12-31 273,519,000 3,500,000
OGILVY & MATHER GROUP (HOLDINGS) LIMITED SEA CONTAINERS, 18 UPPER GROUND, LONDON, ENGLAND, SE1 9RQ 00045810 2017-12-31 266,478,000 11,565,000
AWIN LTD 5TH FLOOR, 2 THOMAS MORE SQUARE, LONDON, E1W 1YN 04010229 2017-12-31 263,643,000 5,270,000 63990-Other information service activities not elsewhere classified
HAVAS MEDIA LIMITED THE HKX BUILDING, THREE PANCRAS SQUARE, LONDON, ENGLAND, N1C 4AG 02103123 2017-12-31 237,877,000 -13,710,000
GLOBAL OUTDOOR MEDIA LIMITED 7TH FLOOR, LACON HOUSE, 84 THEOBALD'S ROAD, LONDON, ENGLAND, WC1X 8NL 02866133 2017-12-31 206,419,000 27,741,000
DDB UK LIMITED 12 BISHOPS BRIDGE ROAD, LONDON, W2 6AA 00933578 2017-12-31 206,096,104 6,815,076
MSIX COMMUNICATIONS LIMITED 7 RATHBONE STREET, LONDON, ENGLAND, W1T 1LY 06665820 2017-12-31 183,512,000 1,317,000
WPP BRANDS (UK) LIMITED GREATER LONDON HOUSE, HAMPSTEAD ROAD, LONDON, NW1 7QP 00390845 2017-12-31 172,619,000 19,036,000
ASTUS UK LIMITED DAVIDSON BUILDING, 5 SOUTHAMPTON STREET, LONDON, WC2E 7HA 04655574 2017-12-31 166,570,406 3,975,369
HOGARTH WORLDWIDE LIMITED 164 SHAFTESBURY AVENUE, LONDON, WC2H 8HL 06872427 2017-12-31 154,378,000 2,383,000 70100-Activities of head offices
CLEAR CHANNEL UK LIMITED 33 GOLDEN SQUARE, LONDON, W1F 9JT 00950526 2017-12-31 137,010,000 8,638,000
ABBOTT MEAD VICKERS.BBDO LIMITED BANKSIDE 3, 90-100 SOUTHWARK STREET, LONDON, ENGLAND, SE1 0SW 01935786 2017-12-31 121,594,482 7,741,761
MINDSHARE MEDIA UK LIMITED CENTRAL ST GILES, 1 ST GILES HIGH STREET, LONDON, WC2H 8AR 03425312 2017-12-31 93,264,000 11,414,000
DIGITASLBI LIMITED 51 TIMBER BUSH, EDINBURGH, EH6 6QH SC177425 2017-12-31 84,942,000 6,640,000
IQVIA SOLUTIONS UK LIMITED 210 PENTONVILLE ROAD, LONDON, N1 9JY 00634325 2017-12-31 74,436,000 5,039,000 73200-Market research and public opinion polling
82990-Other business support service activities not elsewhere classified
SPARK44 LIMITED THE WHITE COLLAR FACTORY, 1 OLD STREET YARD, LONDON, ENGLAND, EC1Y 8AF 07535381 2018-03-31 69,667,602 4,594,706
RAPPORT OUTDOOR LIMITED C-SPACE, 37-45 CITY ROAD, LONDON, ENGLAND, EC1Y 1AT 02230412 2017-12-31 68,265,000 435,000
OUTDOOR MEDIACOM LIMITED 124 THEOBALDS ROAD, LONDON, WC1X 8RX 01254220 2017-12-31 67,711,655 255,457
SALMON LIMITED SEA CONTAINERS, 18 UPPER GROUND, LONDON, UNITED KINGDOM, SE1 9GL 02360867 2017-12-31 64,949,076 7,494,025
KANTAR MEDIA UK LTD 222 GRAY'S INN ROAD, LONDON, ENGLAND, WC1X 8HB 00275304 2017-12-31 63,027,233 2,563,404
SAATCHI & SAATCHI GROUP LTD TOOKS COURT, 40 CHANCERY LANE, LONDON, ENGLAND, WC2A 1JA 00231824 2017-12-31 59,163,000 2,717,000
MCCANN-ERICKSON ADVERTISING LIMITED 7-11 HERBRAND STREET, LONDON, WC1N 1EX 01372305 2017-12-31 53,671,000 -139,000
MEDIABRANDS INTERNATIONAL LIMITED 3 GROSVENOR GARDENS, LONDON, ENGLAND, SW1W 0BD 03970701 2017-12-31 51,117,000 2,803,000
MULLENLOWE LONDON LIMITED C-SPACE, 37-45 CITY ROAD, LONDON, ENGLAND, EC1Y 1AT 00680779 2017-12-31 49,397,000 -3,565,000
CMGRP UK LIMITED 3 GROSVENOR GARDENS, LONDON, SW1W 0BD 02442501 2017-12-31 49,119,000 1,030,000
MAXUS COMMUNICATIONS (UK) LIMITED SEA CONTAINERS, 18, UPPER GROUND, LONDON, ENGLAND, SE1 9ET 02671949 2017-12-31 47,974,000 16,906,000
AKQA LIMITED 1 ST JOHN'S LANE, LONDON, EC1M 4BL 02964394 2017-12-31 42,595,816 -332,251
GREY ADVERTISING LIMITED THE JOHNSON BUILDING, 77 HATTON GARDEN, LONDON, EC1N 8JS 00539916 2017-12-31 42,121,174 6,279,143
FCB INFERNO LIMITED 31 GREAT QUEEN STREET, LONDON, WC2B 5AE 02586852 2017-12-31 41,217,000 1,498,000
MAP MEDIA LIMITED MILLHOUSE 32-38, EAST STREET, ROCHFORD, ESSEX, SS4 1DB 06900818 2017-12-31 39,505,171 5,728,023
PUBLICIS LIMITED 1ST FLOOR 2 TELEVISION CENTRE, LONDON, ENGLAND AND WALES, UNITED KINGDOM, W12 7FR 01046052 2017-12-31 36,634,000 1,858,000
UNIQUE DIGITAL MARKETING LIMITED LACON HOUSE, 84 THEOBALD'S ROAD, LONDON, ENGLAND, WC1X 8NL 04138160 2017-12-31 33,832,185 0
CLEAR CHANNEL INTERNATIONAL LIMITED 33 GOLDEN SQUARE, W1F 9JT 00309019 2017-12-31 33,638,000 2,094,000
KINETIC WORLDWIDE LIMITED THE INSPIRE, HARROGATE, HG2 8PA 01827251 2017-12-31 32,548,683 18,958,564
BLUE SQUARE MARKETING LIMITED TATE HOUSE, WATERMARK WAY, HERTFORD, HERTFORDSHIRE, SG13 7TZ 06797461 2017-12-31 32,073,695 0
ESSENCE GLOBAL LIMITED SEA CONTAINERS, LONDON, UNITED KINGDOM, SE1 9GL 05467689 2017-12-31 30,624,000 7,346,000
R/GA MEDIA GROUP LIMITED 3 GROSVENOR GARDENS, LONDON, SW1W 0BD 02366324 2017-12-31 27,976,000 -5,497,000
ORION TRADING EMEA LIMITED 3 GROSVENOR GARDENS, LONDON, SW1W 0BD 03404334 2017-12-31 27,751,000 3,752,000
WUNDERMAN THOMPSON (UK) LIMITED 1 KNIGHTSBRIDGE GREEN, SW1X 7NW 01660783 2017-12-31 26,871,000 125,000
MEDIACOM NORTH LIMITED 1 HARDMAN STREET, MANCHESTER, M3 3HF 03207931 2017-12-31 24,559,000 7,560,000
MRM WORLDWIDE (UK) LIMITED 3 GROSVENOR GARDENS, LONDON, ENGLAND, SW1W 0BD 02507164 2014-12-31 19,704,000 1,957,000
MEDIABRANDS EMEA LIMITED 3 GROSVENOR GARDENS, LONDON, SW1W 0BD 01206089 2017-12-31 18,020,000 4,341,000
MCCANN-ERICKSON HEALTHCARE UK LIMITED 3 GROSVENOR GARDENS, LONDON, SW1W 0BD 00687406 2017-12-31 17,741,000 1,745,000
HPS MARKETING COMMUNICATIONS LIMITED 6TH FLOOR CHARLOTTE BUILDING, 17 GRESSE STREET, LONDON, UNITED KINGDOM, W1T 1QL 04114693 2017-10-31 16,618,924 0
MOMENTUM ACTIVATING DEMAND LIMITED 3 GROSVENOR GARDENS, LONDON, SW1W 0BD 07949786 2017-12-31 14,406,000 -356,000
EQUI MEDIA LIMITED STELLA BUILDING, WHITEHILL WAY, SWINDON, ENGLAND, SN5 6NX 03892399 2018-01-31 14,246,885 0 82990-Other business support service activities not elsewhere classified
THE BROOKLYN BROTHERS LIMITED 3 GROSVENOR GARDENS, LONDON, ENGLAND, SW1W 0BD 06483331 2015-12-31 13,784,294 1,219,636
INVESTOO LTD 30 DUKES PLACE, LONDON, ENGLAND, EC3A 7LP 10497349 2018-12-31 13,760,670 0
FBC (FUTUREBRAND) LIMITED 3 GROSVENOR GARDENS, LONDON, SW1W 0BD 02658364 2017-12-31 12,297,000 2,464,000
ADVERTISING EXCELLENCE LIMITED LOGIX HOUSE, WROTHAM ROAD, MEOPHAM, KENT, ENGLAND, DA13 0QB 03508906 2017-12-31 9,744,142 0
FOX IPL LIMITED 3 GROSVENOR GARDENS, LONDON, SW1W 0BD 01343808 2017-12-31 9,297,000 1,764,000
LOVE CREATIVE LIMITED 3RD FLOOR, 31 DALE STREET, MANCHESTER, M1 1EY 04207025 2017-12-31 9,170,740 0 74100-specialised design activities
MULLENLOWE PROFERO LIMITED 3 GROSVENOR GARDENS, LONDON, SW1W 0BD 03534827 2017-12-31 8,800,000 8,511,000 62090-Other information technology service activities
MEDIACOM SCOTLAND LIMITED 124 THEOBALDS ROAD, WC1X 8RX 03296603 2017-12-31 8,162,736 4,418,381
HUGO & CAT LTD 3 GROSVENOR GARDENS, LONDON, ENGLAND, SW1W 0BD 04117164 2017-12-31 7,886,000 914,000
POINT THIRTEEN MEDIA LTD THE 13TH CHAPEL, GREATER HORSESHOE WAY KNOWLE, FAREHAM, HAMPSHIRE, PO17 5LF 06036668 2017-12-31 7,561,447 0
WELLSET REPRO LIMITED EAST LODGE HOUSE, CRANLEIGH, SURREY, GU6 8AJ 03205960 2017-12-31 7,372,000 1,418,000 62090-Other information technology service activities
DIRECTIONGROUP LIMITED UNLIMITED HOUSE, 10 GREAT PULTENEY STREET, LONDON, UNITED KINGDOM, W1F 9NB 01653414 2017-10-31 7,067,337 0
HUGE UK LIMITED 3 GROSVENOR GARDENS, LONDON, SW1W 0BD 04235088 2017-12-31 6,395,000 -525,000
INFERNO LIMITED 31 GREAT QUEEN STREET, LONDON, WC2B 5AE 02604658 2017-12-31 4,197,000 -5,000
FCB HEALTH LONDON LIMITED 3 GROSVENOR GARDENS, LONDON, SW1W 0BD 06367844 2017-12-31 3,677,000 -2,093,000
FCB EUROPE LIMITED 3 GROSVENOR GARDENS, LONDON, SW1W 0BD 03007253 2017-12-31 3,600,000 -472,000
FCB HEALTH HAMPSHIRE LIMITED 3 GROSVENOR GARDENS, LONDON, SW1W 0BD 02818414 2017-12-31 3,381,000 -480,000
EMERALD HOUSE ASSOCIATES LIMITED 7 GODWIN ROAD, CORBY, NORTHAMPTONSHIRE, UNITED KINGDOM, NN17 4DS 03295343 2017-12-31 3,369,063 0
QUICKTHINK MEDIA LIMITED SUITE 1A, LINDSEY STREET, LONDON, ENGLAND, EC1A 9HP 06703793 2018-12-31 3,186,059 0
NEWSWORKS 88 CRAWFORD STREET, LONDON, W1H 2EJ 04618606 2017-12-31 2,860,709 0 73200-Market research and public opinion polling
KR MEDIA UK LIMITED 124 THEOBALDS ROAD, LONDON, WC1X 8RX 05269703 2017-12-31 2,489,393 531,447
MTK CONNECT LTD CONNECT HOUSE, BRIDGE STREET, WALTON-ON-THAMES, SURREY, KT12 1BT 09926960 2017-12-31 2,102,835 0 62090-Other information technology service activities
THE BIG RD LIMITED FLOOR 3, HOLBORN TOWER, HIGH HOLBORN, LONDON, ENGLAND, WC1V 6PL 07044229 2018-03-31 1,818,558 0
EYE AIRPORTS LIMITED AD HOUSE, 52 EAST PARADE, HARROGATE, NORTH YORKSHIRE, HG1 5LT 05850525 2017-12-31 1,740,156 0
COMMUNITY PARTNERS LIMITED C P MEDIA HOUSE, 7 HARRISON ROAD, HALIFAX, WEST YORKSHIRE, ENGLAND, HX1 2AF 07462517 2017-12-31 1,737,688 0 35110-Production of electricity
WILDWOOD PROJECTS LIMITED 16 BOULTERS COURT, MAIDENHEAD, BERKSHIRE, SL6 8TH 04691542 2017-05-31 1,272,398 0 43390-Other building completion and finishing
PARADUXX LIMITED ZIKO INFINITY BUSINESS SERVICES, 460, 4TH FLOOR, BROADSTONE MILL, STOCKPORT, ENGLAND, SK5 7DL 09976595 2018-01-31 1,078,826 0
INTEGRITY COLUIT LIMITED ZIKO INFINITY BUSINESS SERVICES 460 4TH FLOOR BROADSTONE MILL, BROADSTONE ROAD, STOCKPORT, ENGLAND, SK5 7DL 09979470 2018-02-28 1,059,194 0
DIXIELINE PROBUILD LIMITED 95 WILTON ROAD, LONDON, ENGLAND, SW1V 1BZ 09974859 2018-01-31 1,054,017 0
CARPETQUEST LIMITED 16 HIGH HOLBORN, LONDON, UNITED KINGDOM, WC1V 6BX 09979480 2018-02-28 1,037,722 0
GLOBALWIDE MEDIA EUROPE LIMITED FIRST FLOOR TEMPLEBACK, 10 TEMPLE BACK, BRISTOL, UNITED KINGDOM, BS1 6FL 08057023 2017-12-31 1,032,413 0
SOLOMONS BALWYN LIMITED ZIKO INFINITY BUSINESS SERVICES, 460, 4TH FLOOR, BROADSTONE MILL, BROADSTONE ROAD, STOCKPORT, ENGLAND, SK5 7DL 09980064 2018-02-28 1,028,335 0
BARN DISCOUNTS LIMITED 55 OLD BROAD STREET, LONDON, UNITED KINGDOM, EC2M 1RX 09980058 2018-02-28 1,012,386 0
HUNTER POOLE LIMITED ZIKO INFINITY BUSINESS SERVICES, 460, 4TH FLOOR, BROADSTONE MILL, STOCKPORT, ENGLAND, SK5 7DL 09972263 2018-01-31 996,124 0
CORY ACE LIMITED 46-48 EAST SMITHFIELD, LONDON, ENGLAND, E1W 1AW 09976707 2018-01-31 984,608 0
CROWE CORN LIMITED 09979176: COMPANIES HOUSE DEFAULT ADDRESS, CARDIFF, CF14 8LH 09979176 2018-02-28 960,983 0
VERCIDA LIMITED 6-8 COLNE ROAD, TWICKENHAM, TW1 4JR 07503138 2018-01-31 931,662 0
CMGRP MARKETING SERVICES LIMITED 3 GROSVENOR GARDENS, LONDON, SW1W 0BD 01306069 2017-12-31 823,000 252,000
MSQD LIMITED MERCHANT HOUSE, 4TH FLOOR, CROOK STREET 4TH FLOOR, CROOK STREET, CHESTER, CHESHIRE, ENGLAND, CH1 2BE 07141988 2017-07-31 769,957 0
GREAT BUS ADVERTISING LIMITED PALLADIUM HOUSE, 1-4 ARGYLL STREET, LONDON, ENGLAND, W1F 7LD 08105913 2017-06-30 732,840 0
GOOCITI LIMITED 10 PHILPOT LANE, LONDON, ENGLAND, EC3M 8AA 07648631 2016-12-31 598,621 0
IN THE BAG PROMOTIONS LIMITED 81 WELBECK ROAD, BARNET, HERTFORDSHIRE, UNITED KINGDOM, EN4 8RY 09672652 2018-12-31 597,634 0
THE HOUSE LIMITED 35 GAY STREET, BATH, SOMERSET, BA1 2NT 04410205 2017-08-31 546,178 0
PACH SOLUTIONS LTD NETLEY HOUSE SHERE ROAD, GOMSHALL, GUILDFORD, SURREY, ENGLAND, GU5 9QA 08008603 2018-03-31 541,744 0
DILLINGER HUTTE UK LIMITED SUITE 5A, LYSAGHTS WAY, SCUNTHORPE, ENGLAND, DN15 9YG 06560022 2017-12-31 497,990 0
BETTER AGENCY LIMITED 1 MOULSHAM STREET, CHELMSFORD, CM2 0HR 08276373 2017-12-31 461,621 0
VALLISTER LTD. WISTERIA GRANGE BARN, PIKES END, PINNER, ENGLAND, HA5 2EX 09483404 2017-12-31 446,050 0 70229-Management consultancy activities other than financial management
PUBLICITY OVERLOAD LIMITED 120 HIGH STREET, EDGWARE, ENGLAND, HA8 7EL 04407167 2019-03-31 430,776 0
THE MISSION CONTROL COMMUNICATIONS LTD 5F WEAVERS COURT, LINFIELD RD IND ESTATE, BELFAST, ANTRIM, BT12 5GH NI625896 2018-07-31 363,233 0
MARKETIZE LTD UNIT 48, MILLMEAD BUSINESS CENTRE MILL MEAD BUSINESS CENTRE, MILL MEAD ROAD, LONDON, N17 9QU 08277639 2018-11-30 347,819 0
KALEIDOSCOPE. ADVERTISING. DESIGN. MARKETING LTD. SUITE 720 COTTON EXCHANGE, BIXTETH STREET, LIVERPOOL, L3 9LQ 02189580 2018-03-31 309,750 0
BEAM LONDON LTD 12 MANCHESTER MEWS, LONDON, W1U 2DX 07327259 2018-07-31 291,910 0
KINSIGHT LIMITED 119 BAGLEYS LANE, LONDON, SW6 2FW 07176098 2018-03-31 270,693 0 79120-Tour operator activities
ADRIENNE VAUGHAN & ASSOCIATES LIMITED HOWELL & CO (LEICESTER) LTD, 1 BITTESWELL ROAD, LUTTERWORTH, LEICS, LE17 4EL 07021258 2017-09-30 266,471 0
ADS-SMART LIMITED THE BASEMENT OFFICE, 14 LEMON STREET, TRURO, CORNWALL, UNITED KINGDOM, TR1 2LS 09448257 2018-02-18 265,892 0
TOMASZDYL PR LTD 11 COLLEGE PLACE, SOUTHAMPTON, SO15 2FE 07915403 2019-01-31 264,368 0 78109-Other activities of employment placement agencies
PUBLICITY ENGINEERS LIMITED SUITE 2 2ND FLOOR, 1-3 WESTERN ROAD, ROMFORD, ENGLAND, RM1 3LD 05517065 2018-03-31 262,314 0
GRAPHIC EVOLUTION (HARROGATE) LIMITED AD HOUSE 52, EAST PARADE, HARROGATE, NORTH YORKSHIRE, HG1 5LT 08821504 2017-12-31 262,200 0
BPS MARKETING LIMITED 20 HAVELOCK ROAD, HASTINGS, EAST SUSSEX, TN34 1BP 05723475 2017-12-31 260,619 0 73120-Media representation services
IX MARKETING LIMITED THE READING ROOM WOLVERTON PARK ROAD, MILTON KEYNES, ENGLAND, MK12 5FJ 01983879 2017-12-31 252,000 35,000
THIS AIN'T ROCK N' ROLL LIMITED 4TH FLOOR PARK GATE, 161-163 PRESTON ROAD, BRIGHTON, EAST SUSSEX, BN1 6AF 06903369 2017-05-31 235,281 0
ART CONNECTION DIRECT LTD 3 BATH MEWS, BATH PARADE, CHELTENHAM, GLOUCESTERSHIRE, ENGLAND, GL53 7HL 09943257 2018-03-31 230,688 0
MINISTRY OF MARKETING LTD 68 KINGSLAND, BROXWOOD WAY, LONDON, UNITED KINGDOM, NW8 7QJ 10118346 2018-04-30 222,736 0
HASELOUR HOUSE MEDIA LIMITED HASELOUR HOUSE, HASELOUR LANE HARLASTON, TAMWORTH, STAFFORDSHIRE, B79 9JT 04202472 2018-04-30 221,338 0 73120-Media representation services
AGGREGATORS UK LIMITED 44-48 MAGDALEN STREET, NORWICH, NR3 1JU 07561411 2018-03-31 203,452 0
PERMISSION MEDIA GROUP LTD. ROHANS HOUSE, 92-96 WELLINGTON RD S, STOCKPORT, CHESHIRE, ENGLAND, SK1 3TJ 09140601 2018-07-31 191,865 0 62030-Computer facilities management activities
MEKX LTD OFFICE 18A 9-11 GUNNERY TERRACE, CORNWALLIS ROAD, LONDON, ENGLAND, SE18 6SW 09044288 2018-05-31 187,866 0
THE COPY DEPARTMENT LTD. 24 DERRYVOLGIE AVENUE, BELFAST, NORTHERN IRELAND, BT9 6FN NI611026 2018-02-28 187,428 0
BRAND786 LTD 42 WESTWOOD GLEN, TILEHURST, READING, ENGLAND, RG31 5NW 08256058 2017-10-31 186,486 0 59112-Video production activities
TLC PR LIMITED 52A BOLLINGTON ROAD, BOLLINGTON, MACCLESFIELD, CHESHIRE, SK10 5EJ 05678971 2019-05-31 185,462 0
RED BUTTON MARKETING LIMITED FARM END ANDREWS LANE, WILLINGTON, SHIPSTON UPON STOUR, WARWICKSHIRE, CV36 5AS 09973125 2018-03-31 179,439 0
BCM AGENCY LIMITED SUITE 6, ST ALBANS, HERTFORDSHIRE, ENGLAND, AL1 1DT 10238918 2019-03-31 172,785 0
INTERNATIONAL ADVERTISING ASSOCIATION UNITED KINGDOMCHAPTER LIMITED 9 BRIDLE CLOSE, SURBITON ROAD, KINGSTON UPON THAMES, SURREY, KT1 2JW 00723472 2017-06-30 165,727 0
CONCENTRATE LIMITED STUDIO 3 PINE COURT BUSINESS CENTRE, GERVIS ROAD, BOURNEMOUTH, DORSET, BH1 3DH 04856624 2018-03-31 163,019 0
PPC INSIGHT LIMITED DAVID WHITE, 76 ELDERSLIE STREET, GLASGOW, G3 7AL SC485212 2018-08-31 161,169 0
THE YOU AGENCY DIGITAL LTD 1 THE OLD SCHOOL THE SQUARE, PENNINGTON, LYMINGTON, HAMPSHIRE, ENGLAND, SO41 8GN 08789567 2018-11-30 153,699 0
DEZIGN MEDIA LIMITED 11 BRAEMAR AVENUE, ALEXANDRA PARK, LONDON, ENGLAND, N22 7BY 05553054 2018-09-30 152,287 0
DORIS LONDON LIMITED 41 ALMA ROAD, WINDSOR, BERKSHIRE, UNITED KINGDOM, SL4 3HN 10109428 2018-04-30 148,191 0
SPELLBRAND LIMITED 9 THE SHRUBBERIES, GEORGE LANE, LONDON, E18 1BD 05461453 2018-05-31 146,700 0
NAKED PENGUIN BOY LIMITED C/O VALENTINE & CO GLADE HOUSE, 52-54 CARTER LANE, LONDON, EC4V 5EF 04222877 2018-03-31 141,587 0
THINQ MEDIA LIMITED NEWLANDS HOUSE NEWLANDS SCIENCE PARK, INGLEMIRE LANE, HULL, EAST YORKSHIRE, HU6 7TQ 04616081 2018-04-30 140,833 0
THIS IS OUR TOWN LTD 6-8 FREEMAN STREET, GRIMSBY, ENGLAND, DN32 7AA 08048225 2017-04-30 128,074 0
MEDIAFED EXCHANGE LTD 27 VIAN AVENUE, ENFIELD, ENGLAND, EN3 6LQ 09358764 2018-12-31 127,025 0
TEMIMARKETING LTD 20-22 WENLOCK ROAD, LONDON, N1 7GU 09333389 2018-11-30 124,980 0
PENCILFISH LIMITED DENNY LODGE BUSINESS PARK ELY ROAD, CHITTERING, CAMBRIDGE, CAMBRIDGESHIRE, CB25 9PH 04509493 2018-03-31 124,181 0 90030-Artistic creation
ROOT TO BRANCH COMMUNICATIONS LTD BREWERY BARN THE GREEN, HATFIELD PEVEREL, CHELMSFORD, ENGLAND, CM3 2JQ 09082581 2018-06-30 119,566 0 62020-Information technology consultancy activities
62090-Other information technology service activities
SHORTLIST MARKETING LTD SPACE 2, DAKEYNE STREET, NOTTINGHAM, ENGLAND, NG3 2AR 07377250 2018-09-30 117,975 0
KASHMIL LIMITED 125 LONSDALE DRIVE, OAKWOOD, ENFIELD, MIDDLESEX, EN2 7NB 06515718 2018-02-28 116,778 0
RSR LAW LTD 27 OLD GLOUCESTER STREET, LONDON, ENGLAND, WC1N 3AX 08446617 2019-01-31 116,325 0 69102-Solicitors
MORPH PR AND MARKETING LTD 30 GOLDSMITH AVENUE, SOUTHSEA, HAMPSHIRE, PO4 8QT 06479942 2018-03-31 114,765 0
ON A MISSION EVENTS LIMITED THE SQUARE, SOUTHAMPTON, UNITED KINGDOM, SO45 1DD 10669739 2018-03-31 112,925 0 93290-Other amusement and recreation activities not elsewhere classified
EUPHITA LIMITED 72 OSBORNE ROAD, FARNBOROUGH, HAMPSHIRE, GU14 6AF 07336367 2018-08-31 111,430 0 59112-Video production activities
CHERRY CREATIVE LIMITED THE HUB 34B YORK WAY, LONDON, GREATER LONDON, N1 9AB 07085100 2017-12-31 110,959 0
TIDAL VENTURES LIMITED CEDAR LODGE, POOLE, DORSET, ENGLAND, BH14 9NS 10282133 2018-08-22 110,591 0
HQ COMMUNICATION MARKETING AND BUSINESS BROKERING LTD UNIT 22, BULRUSHES BUSINESS PARK,, EAST GRINSTEAD, UNITED KINGDOM, RH19 4LZ 10465354 2018-11-30 108,242 0 70229-Management consultancy activities other than financial management
82990-Other business support service activities not elsewhere classified
LETTERBOX SMART LTD UNIT 8, ENTERPRISE CENTER, JAMES STREET, CARLISLE, ENGLAND, CA2 5BB 09902425 2017-12-31 107,221 0
X.E. WEBSITE SOLUTIONS LTD 17 FENNFIELDS ROAD, SOUTH WOODHAM FERRERS, CHELMSFORD, ESSEX, CM3 5RZ 03991504 2019-04-30 106,574 0
BWR ASSOCIATES LIMITED UNIT 27B TELFORD ROAD, GORSE LANE INDUSTRIAL ESTATE, CLACTON-ON-SEA, ESSEX, ENGLAND, CO15 4LP 06988620 2018-08-31 104,351 0 62090-Other information technology service activities
63110-Data processing, hosting and related activities
TORRE LORENZO DEVELOPMENT CORPORATION EUROPE LTD 13 HOGARTH PLACE, LONDON, ENGLAND, SW5 0QT 09226390 2018-09-30 104,136 0
EWORLD SYSTEMS LIMITED 71-75 SHELTON STREET, LONDON, UNITED KINGDOM, WC2H 9JQ 10386890 2018-09-30 102,806 0
GO-PRESENT LIMITED RIVERSIDE HOUSE 3 PLACE FARM, WHEATHAMPSTEAD, ST. ALBANS, HERTS, ENGLAND, AL4 8SB 04292659 2019-03-31 101,684 0
PAUL RAYBOULD MARKETING LIMITED 25 WELL CLOSE, LEIGH, TONBRIDGE, KENT, TN11 8RQ 05082472 2018-09-30 100,522 0
THE ADWORDS COMPANY LIMITED 61B CAROLINE STREET, BIRMINGHAM, WEST MIDLANDS, UNITED KINGDOM, B3 1UF 09525767 2018-03-31 100,450 0
JOJO SPORTS LTD PENHURST HOUSE, LONDON, ENGLAND, SW11 3BY 10218449 2018-06-30 92,139 0
MBSA MARKETING LTD 68 FINNART STREET, GREENOCK, INVERCLYDE, UNITED KINGDOM, PA16 8HJ SC536213 2017-09-30 90,760 0
OPUS STONE LIMITED 55 CHURCH DRIVE CHURCH DRIVE, QUEDGELEY, GLOUCESTER, ENGLAND, GL2 4UW 06699177 2018-09-30 90,466 0
MCM2 LTD THE BARN DAISY BANK FARM TOP FARM LANE, CHOLMONDESTON, WINSFORD, CHESHIRE, CW7 4DR 08310922 2018-11-30 87,329 0
BGD SOLUTIONS (UK) LTD NIDDRY LODGE, 51 HOLLAND STREET, LONDON, KENSINGTON, W8 7JB 08811596 2018-12-31 84,500 0 68310-Real estate agencies
68320-Management of real estate on a fee or contract basis
69201-Accounting and auditing activities
CATCH MEDIA LIMITED 9 LORRAINE GARDENS LANE, GLASGOW, SCOTLAND, G12 9PA SC551492 2017-12-31 83,422 0
COPPERFOX COMMUNICATIONS LIMITED 2 HARDMAN ROAD, CAMBRIDGE, UNITED KINGDOM, CB22 6RN 10061857 2019-03-31 82,850 0
OMAGH TODAY LTD 79 MOYLAGH ROAD, BERAGH, CO. TYRONE, BT79 0UN NI620364 2017-09-30 82,672 0
MARK HERRING LIMITED 4 LIMES AVENUE, LONDON, E11 2BP 06649478 2018-03-31 80,965 0
TOM WRIGLEY DIGITAL LIMITED 10 ST JOHNS COTTAGES, LONDON, ENGLAND, SE20 8HX 10925486 2018-08-31 79,351 0 70210-Public relations and communications activities
70229-Management consultancy activities other than financial management
CURSORPRO LTD MF ACCOUNTING, PIXEL BUILDING, WALTHAM ABBEY, ENGLAND, EN9 1JH 10413714 2018-10-31 79,120 0 73120-Media representation services
73200-Market research and public opinion polling
GUSTO MARKETING LIMITED 48 QUEEN STREET, EXETER, DEVON, ENGLAND, EX4 3SR 09275541 2019-03-31 79,090 0
FINDMEA.COM LIMITED 3 SLATERS COURT, PRINCESS STREET, KNUTSFORD, ENGLAND, WA16 6BW 03049695 2018-04-30 78,690 0
ENGINES ON DEMAND LTD STATION ROAD BUSINESS CENTRE STATION ROAD, CLOWNE, CHESTERFIELD, DERBYSHIRE, ENGLAND, S43 4RW 07546799 2018-03-31 77,340 0
ANDREW WATKINSON CREATIVE LTD 2 VINE HOUSE HIGH STREET, TONBRIDGE, UNITED KINGDOM, TN12 0AR 10846592 2019-07-31 75,600 0
TAW MARKETING SOLUTIONS LIMITED DUNCAN HOUSE, 705 DOLPHIN SQUARE, LONDON, ENGLAND, SW1V 3PP 08653151 2018-08-31 74,992 0
ADF CONSULTING LTD ROOM 3A, HILLCROFT HOUSE WHISBY ROAD, HILCROFT BUSINESS PARK, LINCOLN, UNITED KINGDOM, LN6 3QJ 07690181 2018-07-31 74,821 0 58190-Other publishing activities
82110-Combined office administrative service activities
82990-Other business support service activities not elsewhere classified
PBA SIGNS & GRAPHICS UK LTD UNIT 2 THURROCK TRADE PARK, OLIVER ROAD, GRAYS, ESSEX, ENGLAND, RM20 3ED 06954505 2018-07-31 74,786 0 74100-specialised design activities
CHAPS AGENCY LTD 48 SANDOWN WAY, NORTHOLT, MIDDLESEX, UB5 4HZ 09143041 2017-07-31 74,772 0
HYPERLINK MEDIA LTD 2 BALMORAL ROAD, OAKHAM, RUTLAND, LE15 6RT 07275401 2018-06-30 72,874 0 62020-Information technology consultancy activities
TOWER ENERGY LTD ARTIFIN ACCOUNTANTS, SUITE 5, 2ND FLOOR, 225 MARSH WALL, LONDON, ENGLAND, E14 9FW 09511922 2018-03-31 72,438 0
INTERESTING CONTENT LIMITED INTERESTING CONTENT 49 GREEK STREET, GREEK STREET, LONDON, ENGLAND, W1D 4EG 08664456 2018-03-31 71,482 0
ANDYM LIMITED 85 VICTORIA WAY, VICTORIA WAY, LONDON, SE7 7NQ 08438109 2019-03-31 71,157 0
MARKETING ZONE LIMITED 17 WYDDIAL ROAD, BUNTINGFORD, HERTFORDSHIRE, SG9 9AT 03343075 2018-03-31 68,633 0
ESCHERMAN LTD PARKSHOT HOUSE, 5 KEW ROAD, RICHMOND, SURREY, TW9 2PR 06468929 2017-12-31 67,910 0 70210-Public relations and communications activities
CIRRUS MARKETING CONSULTING LIMITED 38 EXETER ROAD, SOUTHVILLE, BRISTOL, ENGLAND, BS3 1LZ 06791844 2019-05-04 67,688 0 70229-Management consultancy activities other than financial management
73200-Market research and public opinion polling
BLUE LINE DESIGN LIMITED 52 ORCHARD DRIVE, PARK STREET, ST ALBANS, HERTS, AL2 2QG 05974491 2018-12-31 67,165 0 58190-Other publishing activities
RAINDROP DIGITAL LIMITED REGUS TOWER COURT OAKDALE ROAD, CLIFTON MOOR, YORK, NORTH YORKSHIRE, ENGLAND, YO30 4XL 09752865 2019-08-31 66,571 0
TOGADA LIMITED KINGSTON NEST, ROOM 1023, KINGSTON BUSINESS SCHOOL, KINGSTON HILL, KINGSTON UPON THAMES, SURREY, ENGLAND, KT2 7LB 09201069 2018-09-30 66,464 0 59112-Video production activities
90030-Artistic creation
STADIA MEDIA LTD 15 ST. GEORGES DRIVE, ICKENHAM, UXBRIDGE, MIDDLESEX, ENGLAND, UB10 8HW 09361514 2018-12-31 65,403 0
RED LEMON SERVICES LIMITED WESTINGTON CORNER, SHEP STREET, CHIPPING CAMPDEN, GLOS., ENGLAND, GL55 6DW 04923864 2018-10-31 64,667 0
CORELLIAN ENTERPRISES LTD 87 PRIORY ROAD, GEDLING, NOTTINGHAM, NOTTINGHAMSHIRE, NG4 3JZ 07676119 2018-06-30 62,329 0
MOLEJAM LIMITED 7 NELSON STREET, SOUTHEND-ON-SEA, ESSEX, SS1 1EH 09413919 2018-03-31 62,200 0
REAL SOLUTIONS BEST NOBLE LTD IVY HOUSE, BARMOUTH, GWYNEED, WALES, LL42 1NY 10210398 2018-06-30 61,250 0
BIG FUTURE LIMITED STAFFORDSHIRE KNOT, PINFOLD STREET, WEDNESBURY, WS10 8TE 04847587 2017-07-31 60,759 0
REALLY GOOD MARKETING LTD KYREBATCH FARM, ROXPOLE LANE, THORNBURY, BROMYARD, HR7 4NN 07995360 2018-03-31 59,530 0 62012-Business and domestic software development
62020-Information technology consultancy activities
70210-Public relations and communications activities
KNAPP CREATE LIMITED FLAT 12 WILLOW COURT,, 5A COPERS COPE ROAD,, BECKENHAM,, KENT, UNITED KINGDOM, BR3 1PB 07479947 2018-12-31 57,620 0
SHAW PRODUCTIONS LTD 79 MARMORA ROAD, LONDON, ENGLAND, SE22 0RY 10203148 2018-05-31 56,965 0
PS PUBLICATIONS LTD FIRST FLOOR 41, CLIFFORD ROAD, BLACKPOOL, LANCS, FY1 2PU 07686737 2018-03-31 56,730 0
COMPELLING COPYWRITING LTD 215 GLOUCESTER ROAD, CROYDON, SURREY, CR0 2DW 08682860 2018-09-30 54,852 0
CARLOSBRAVO DESIGN LTD 58 WELLFIELD ROAD, LONDON, UNITED KINGDOM, SW16 2BP 10752144 2019-03-31 54,679 0
EBUSINESS ENTERPRISE LIMITED 2 PALMERS ROAD, UNIT 25, LONDON, ENGLAND, E2 0SX 06142083 2018-03-31 54,374 0 62012-Business and domestic software development
63120-Web portals
AUTOMARKETING LIMITED THE MAIDSTONE STUDIOS, VINTERS PARK, MAIDSTONE, KENT, ME14 5NZ 05576377 2018-03-31 54,345 0
STARFISH PRODUCTION LIMITED UNIT 1, ROWAN COURT, 56 HIGH STREET WIMBLEDON, LONDON, ENGLAND, SW19 5EE 09480918 2018-03-31 53,935 0
LEXICON MARKETING LIMITED 2 WESTGATE TERRACE, WESTGATE STREET, LONG MELFORD, SUDBURY, SUFFOLK, CO10 9DW 08217936 2018-09-30 53,409 0
3 DRAGON MARKETING LTD 57 HIGH STREET, WHITWELL, HITCHIN, HERTFORDSHIRE, SG4 8AH 07229655 2018-04-30 53,380 0
ANTHONY SMITH ADVERTISING LTD 91 GLOUCESTER COURT, KEW ROAD, RICHMOND, SURREY, TW9 3DZ 05777094 2018-03-31 52,210 0
NERD LIMITED 18A KINGSWOOD ROAD, BROMLEY, ENGLAND, BR2 0NJ 10700961 2018-03-31 51,874 0 70229-Management consultancy activities other than financial management
73200-Market research and public opinion polling
VIPARA LIMITED 7 BERKELEY CLOSE, PITSTONE, LEIGHTON BUZZARD, BEDFORDSHIRE, LU7 9FG 07658418 2018-06-30 51,316 0
C-ME PRODUCTS LTD IDEAS HOUSE, EASTWOOD CLOSE, LONDON, E18 1RT 07532772 2018-02-28 51,217 0
MJCAV LTD TAXASSIST ACCOUNTANTS, 298 HIGH STREET, DORKING, RH4 1QX 09246127 2018-10-31 50,979 0
GOOGLE ADS LTD 10 MARE STREET, HACKNEY, LONDON, E8 4RT 08537202 2017-05-31 50,409 0 82990-Other business support service activities not elsewhere classified
1ST ADTUBE LIMITED 6 PAGITT STREET, CHATHAM, ENGLAND, ME4 6RF 10516561 2018-12-31 50,389 0
WRITERS REIGN LIMITED FLAT 2 3, HIGH STREET, MAIDENHEAD, BERKSHIRE, SL6 1JN 08759010 2018-10-31 49,853 0
POP REPUBLIC LIMITED 53 BARING ROAD, COCKFOSTERS, BARNET, ENGLAND, EN4 9BU 07308819 2018-07-31 47,688 0
JFONTE LTD 144 CORFIELD STREET, LONDON, ENGLAND, E2 0DS 09433826 2019-02-28 47,594 0
SKYV LTD 31 LOWRY CLOSE, COLLEGE TOWN, SANDHURST, BERKSHIRE, UNITED KINGDOM, GU47 0FJ 09874350 2017-11-30 47,400 0 69202-Bookkeeping activities
DUNCAN HALL LTD 20 HERTFORD ROAD 20 HERTFORD ROAD, LONDON, ENGLAND, N1 5QS 10877897 2019-03-31 46,275 0 73200-Market research and public opinion polling
DAVIDCREATES LTD 92 SANDGATE HIGH STREET, FOLKESTONE, ENGLAND, CT20 3BY 08040777 2018-04-30 45,000 0
GERTYE FREELANCE LIMITED 40 BARTHOLOMEW CLOSE, LONDON, ENGLAND, SW18 1JQ 10704716 2019-04-30 44,500 0
FENTON WARD DESIGN LIMITED ENTERPRISE HOUSE C/O A.M. INSOLVENCY LIMITED, CARLTON ROAD, WORKSOP, NOTTS, S81 7QF 04466700 2017-05-31 43,807 0
ABC MEDIA LIMITED FLOOR 1 MEDIUS HOUSE, LONDON, UNITED KINGDOM, WC1A 1DG 05008782 2016-12-31 43,597 0
EVEREST MARKETING LIMITED 36 HORSENDEN CRESCENT, GREENFORD, MIDDLESEX, UB6 0JE 08571789 2018-06-30 43,317 0
TBA PR LONDON LTD 138 HASSELL STREET, NEWCASTLE, UNITED KINGDOM, ST5 1BB 10773522 2019-05-31 42,901 0
STEVE DAVIS GRAPHIC DESIGN LTD 31 EPWORTH ROAD, PORTSMOUTH, HAMPSHIRE, PO2 0HD 08435573 2018-03-31 42,077 0
AKOS BMC LTD KEMP HOUSE, 152 - 160 CITY ROAD, LONDON, ENGLAND, EC1V 2NX 08172505 2017-08-31 41,449 0 62012-Business and domestic software development
82990-Other business support service activities not elsewhere classified
SUNBIRD CREATIVE LTD. 2 CLAN MCDONALD HOUSE, 47 BRAMHOPE LANE, LONDON, SE7 7FH 07786407 2018-09-30 40,957 0
SUNBIRD CREATIVE LTD. 2 CLAN MCDONALD HOUSE, 47 BRAMHOPE LANE, LONDON, SE7 7FH 07786407 2018-09-30 40,957 0
SUNBIRD CREATIVE LTD. 2 CLAN MCDONALD HOUSE, 47 BRAMHOPE LANE, LONDON, SE7 7FH 07786407 2018-09-30 40,957 0
SUNBIRD CREATIVE LTD. 2 CLAN MCDONALD HOUSE, 47 BRAMHOPE LANE, LONDON, SE7 7FH 07786407 2018-09-30 40,957 0
SUNBIRD CREATIVE LTD. 2 CLAN MCDONALD HOUSE, 47 BRAMHOPE LANE, LONDON, SE7 7FH 07786407 2018-09-30 40,957 0
TIM PALMER CREATIVE LIMITED 1H HAROLD ROAD, LONDON, LONDON, UNITED KINGDOM, N8 7DE 10862815 2018-07-31 39,575 0
BRANDIFIQUE LTD 15 RICHMOND AVENUE, KINGS HILL, WEST MALLING, KENT, ENGLAND, ME19 4FE 05630776 2018-03-31 38,949 0
OPTIM-EYEZ IT LTD 1 LANSDOWNE AVENUE, SHEPSHED, LOUGHBOROUGH, LEICESTERSHIRE, LE12 9RR 09196661 2018-08-31 37,016 0 96090-Other service activities not elsewhere classified
ABBEYCROWN GRAPHICS LIMITED 43 WHITECROSS ROAD, WESTON-SUPER-MARE, AVON, BS23 1EN 08865988 2018-01-31 36,974 0
BERNARD GEORGE BARSLEY LTD 3A WINDERMERE AVENUE, KILBURN, LONDON, UNITED KINGDOM, NW6 6LP 09793181 2018-03-31 36,664 0
FREELANCELOT LONDON LTD TAXASSIST ACCOUNTANTS, 298 HIGH STREET, DORKING, RH4 1QX 09306534 2017-11-30 35,610 0
MINERVA CREATIVE MARKETING LIMITED 14 QUESTED WAY, HARRIETSHAM, MAIDSTONE, ENGLAND, ME17 1JJ 08932136 2018-03-31 35,607 0
JORDAN - ROSS CONSULTING LIMITED 2 STAMFORD SQUARE, LONDON, UNITED KINGDOM, SW15 2BF 10645995 2018-03-31 35,089 0
CASS BECK'S LTD 62 FERNTOWER ROAD, LONDON, ENGLAND, N5 2JH 10707314 2018-04-30 35,061 0
CHASEDESIGN WORLDWIDE LIMITED 3 GROSVENOR GARDENS, LONDON, SW1W 0BD 01973547 2017-12-31 35,000 11,000
WELL WORTH IT AGENCY LIMITED 7 PETLEY ROAD, LONDON, LONDON, UNITED KINGDOM, W6 9SU 09666344 2018-07-31 34,974 0
CHESHIRE CAT MARKETING LIMITED 80 WHITLOW LANE WHITLOW LANE, NORTHWICH, UNITED KINGDOM, CW9 8RH 10502381 2018-11-30 34,622 0 70210-Public relations and communications activities
BRANE LIMITED C/O INCISIVE ACCOUNTING UNIT 7 FORDWATER INDUSTRIAL ESTATE, FORD ROAD, CHERTSEY, SURREY, UNITED KINGDOM, KT16 8HG 08509087 2018-12-31 34,427 0
WORDSMITH EXPERTS LIMITED 19 ALZEY GARDENS, HARPENDEN, HERTFORDSHIRE, AL5 5SZ 08442463 2018-03-31 34,334 0 73120-Media representation services
ICON DESIGN & PRINT LIMITED 139 WILBRAHAM ROAD, FALLOWFIELD, MANCHESTER, M14 7DS 07163291 2018-02-28 33,828 0
L W JONES LIMITED 2 STAMFORD SQUARE, LONDON, UNITED KINGDOM, SW15 2BF 10723086 2018-04-30 33,712 0
M JAX LTD 32 BROOK HOUSE, BROOK STREET, TIPTON, ENGLAND, DY4 9DD 09228894 2018-09-30 33,426 0
HOT LEMON LIMITED 14 HALLS HOLE ROAD, TUNBRIDGE WELLS, KENT, TN2 4UA 05658035 2018-12-31 33,243 0 58290-Other software publishing
62090-Other information technology service activities
LEVETSKY LTD FLAT D, 40, LONDON, UNITED KINGDOM, NW3 7QN 10784196 2019-03-31 33,150 0
OMEGA3DESIGN LTD 18 LANGDALE ROAD, CHELTENHAM, GL51 3LY 08950249 2018-04-04 32,987 0
PINK POUND MARKETING LIMITED CHARLES BURRELL CENTRE, STANIFORTH ROAD, THETFORD, NORFOLK, ENGLAND, IP24 3LH 08907801 2019-02-28 32,923 0
M & A MARKETING LIMITED 3 BATH MEWS, CHELTENHAM, GLOUCESTERSHIRE, UNITED KINGDOM, GL53 7HL 10720124 2018-03-31 32,256 0 74209-Photographic activities not elsewhere classified
CREATIVE LINK STUDIO LTD 3 DENMARK ROAD, BRIGHTON, EAST SUSSEX, BN41 1GJ 08993853 2018-04-30 31,630 0 62020-Information technology consultancy activities
62090-Other information technology service activities
74100-specialised design activities
LONDON DIRECT MARKETING GROUP LIMITED 114 OLINDA ROAD, LONDON, UNITED KINGDOM, N16 6TP 10518865 2017-12-31 31,540 0
TOM KOCHAVI COPY LTD 26 MACDONALD ROAD, LONDON, N11 3JB 07752489 2019-08-31 31,530 0
CREATIVE FORAGER LIMITED CURRAWONG, BROCKENHURST, HAMPSHIRE, ENGLAND, SO42 7SA 10374724 2018-09-30 31,359 0
LIBBY MIDDLEHURST LIMITED 40 ALWYNE ROAD, LONDON, UNITED KINGDOM, SW19 7AE 10851682 2018-07-31 31,122 0
INSIDE OUT MARKETING SOLUTIONS LTD. 30 CANTERBURY HOUSE, 2 WHARF STREET, LONDON, UNITED KINGDOM, SE8 3FZ 09541987 2018-04-30 30,782 0
COTTAGE TRADING LIMITED 3 KINETON COTTAGES, LITTLE KINETON, WARWICK, ENGLAND, CV35 0DN 09474540 2018-03-31 30,701 0
EXPLORE DIGITAL SOLUTIONS LIMITED HEATHER STOBBART, 81 CHURCH WAY, BOGNOR REGIS, WEST SUSSEX, ENGLAND, PO21 4QX 09465423 2018-03-31 30,151 0
DIGITAL ROCKS LTD 106 SHELLEY ROAD EAST, BOURNEMOUTH, ENGLAND, BH7 6HB 02946437 2018-04-30 29,975 0 46180-Agents specialized in the sale of other particular products
46190-Agents involved in the sale of a variety of goods
46520-Wholesale of electronic and telecommunications equipment and parts
EXCLUSIVELY THAMES VALLEY LIMITED THE OLD WEIR HOUSE, MARLOW, BUCKINGHAMSHIRE, ENGLAND, SL7 1NQ 10026001 2018-12-31 28,569 0
DFT MARKETING LIMITED ST MARTINS HOUSE 2 BARNSLEY ROAD, WATH-UPON-DEARNE, ROTHERHAM, SOUTH YORKSHIRE, ENGLAND, S63 6PY 09575862 2018-05-31 28,500 0
SAM STONE DESIGN LTD AVON BOOKKEEPING & ACCOUNTS, 26 FENNELS FARM ROAD, FLACKWELL HEATH, HIGH WYCOMBE, BUCKINGHAMSHIRE, HP10 9BS 09248116 2018-09-30 27,818 0 70210-Public relations and communications activities
73120-Media representation services
74100-specialised design activities
PI CREATIVE LIMITED 8 GLEBE COTTAGES, WALLINGFORD, ROAD, SOUTH STOKE, BERKSHIRE, RG8 0JA 06281338 2018-06-30 27,269 0
BIG IDEA MARKETING LIMITED 12 BEECHWOOD CLOSE, HERTFORD, HERTFORDSHIRE, SG13 7HW 07241340 2018-12-31 27,223 0 70210-Public relations and communications activities
50 POUND SOCIAL LTD 7 SADLER COPSE, LEEDS, UNITED KINGDOM, LS16 8NW 10297668 2018-07-31 27,193 0
GARETH PAUL JONES STUDIO LTD 45 FARMER ROAD, LONDON, ENGLAND, E10 5DL 10283405 2018-07-31 26,835 0
UK COLLECTIVE LIMITED 19 OLD HALL STREET, LIVERPOOL, ENGLAND, L3 9JQ 09833080 2018-10-31 26,519 0
TMI SEO LIMITED 81 ST. JUDES ROAD, ENGLEFIELD GREEN, EGHAM, UNITED KINGDOM, TW20 0DF 08424945 2018-02-28 26,166 0
LUCY K TURNER LTD F25 WATERFRONT STUDIOS, LONDON, UNITED KINGDOM, E16 1AH 10482907 2018-11-30 25,588 0
VR RAVAT LIMITED 2 MAYFIELD AVENUE, HARROW, ENGLAND, HA3 8EU 08664606 2018-03-31 25,467 0
TDC & STUDIO LIMITED 70B SANDRINGHAM ROAD, DALSTON, LONDON, UNITED KINGDOM, E8 2LL 10322905 2017-08-31 24,450 0
BUDA LIMITED 76 WITHAM HOUSE, 13 ENTERPRISE WAY, LONDON, SW18 1GB 09088865 2018-06-30 24,339 0
MAJIK MARKETING SOLUTIONS LIMITED 1 LAGHAM PARK, SOUTH GODSTONE, GODSTONE, SURREY, RH9 8EW 08070897 2018-05-31 23,926 0
FASHION CULTURE LTD 16 POWLETT PLACE, CAMDEN TOWN, LONDON, NW1 8DR 08470394 2018-03-31 23,750 0 73200-Market research and public opinion polling
THE MARKETING DEPT LIMITED 87 PRIORY ROAD, NOTTINGHAM, ENGLAND, NG4 3JZ 10518712 2018-12-31 23,615 0
BEST LOCAL BUILDER LTD 59 MORDEN ROAD, MITCHAM, SURREY, CR4 4DE 08941405 2018-03-31 23,377 0
SARAH FARRUGIA & CO LIMITED 21 ELLIS STREET, ELLIS STREET, LONDON, SW1X 9AL 06340902 2017-12-31 22,147 0
SUAVEHOUSE LTD 37 THE IO CENTRE, ARMSTRONG ROAD, LONDON, SE18 6RS 06567516 2018-03-31 21,542 0
SUAVEHOUSE LTD 37 THE IO CENTRE, ARMSTRONG ROAD, LONDON, SE18 6RS 06567516 2018-03-31 21,542 0
SUAVEHOUSE LTD 37 THE IO CENTRE, ARMSTRONG ROAD, LONDON, SE18 6RS 06567516 2018-03-31 21,542 0
SUAVEHOUSE LTD 37 THE IO CENTRE, ARMSTRONG ROAD, LONDON, SE18 6RS 06567516 2018-03-31 21,542 0
SUAVEHOUSE LTD 37 THE IO CENTRE, ARMSTRONG ROAD, LONDON, SE18 6RS 06567516 2018-03-31 21,542 0
MARIANNE WEST MARKETING LTD 165 MINA ROAD, BRISTOL, BS2 9YQ 09374687 2019-01-31 21,313 0 70210-Public relations and communications activities
VAN DE MOSSELAAR LTD 33 DELTA POIN 33 DELTA POINT, DELTA STREET, LONDON, ENGLAND, E2 7BF 08688301 2018-09-30 21,163 0
CONSTANT COPY LTD WREXHAM ENTERPRISE HUB, 11-13 RHOSDDU ROAD, WREXHAM, WALES, LL11 1AT 08839892 2019-01-31 21,103 0 58110-Book publishing
85590-Other education not elsewhere classified
BALANCED LIFE ACADEMY GROUP LTD 1 RORDIN HEIGHTS, HUDDERSFIELD, WEST YORKSHIRE, UNITED KINGDOM, HD2 1GJ 10136778 2019-04-30 20,797 0 85590-Other education not elsewhere classified
CITY COPYWRITER LTD 63/66 HATTON GARDEN, FIFTH FLOOR SUITE 23, LONDON, ENGLAND, EC1N 8LE 08446145 2019-03-31 20,422 0 62020-Information technology consultancy activities
BULLETPOINT COPY LIMITED 46 TREDEGAR ROAD, READING, ENGLAND, RG4 8QF 10542252 2018-12-31 20,002 0
BIG MONSTER LTD 35 SANDILEIGH AVENUE, HALE, ALTRINCHAM, CHESHIRE, WA15 8AT 08897811 2018-02-28 19,784 0 32409-Manufacture of other games and toys, not elsewhere classified
47910-Retail sale via mail order houses or via Internet
62012-Business and domestic software development
L V GREEN LIMITED 112A UPPER CLAPTON ROAD, LONDON, ENGLAND, E5 9JY 10463011 2018-11-30 19,400 0
MEDIA VARIATION LIMITED 13 ASTRA ROAD, ASTRA BUSINESS PARK, TRAFFORD PARK, MANCHESTER, M17 1SU 07503905 2018-01-31 19,220 0
JOLLY CREATIVE LTD 22A PUTNEY HIGH STREET, LONDON, UNITED KINGDOM, SW15 1SL 10277642 2018-07-31 18,292 0 90030-Artistic creation
SURREPSUS LIMITED 71-75 SHELTON STREET, LONDON, ENGLAND, WC2H 9JQ 10906546 2018-08-31 18,187 0 47910-Retail sale via mail order houses or via Internet
EASY CLICK MARKETING LIMITED 635B ROUNDHAY ROAD, LEEDS, WEST YORKSHIRE, ENGLAND, LS8 4BA 10529080 2018-12-31 18,144 0
KAYRO LIMITED MILLMEAD BUSINESS CENTRE, MILLMEAD ROAD, LONDON, UNITED KINGDOM, N17 9QU 06890531 2018-04-30 17,856 0
ALEX PHIPPS LTD FLAT 8, LONDON, ENGLAND, E8 4QJ 11201818 2018-01-11 17,710 0
YELLOW OLIVES LTD 51 KINGSWOOD COURT, LONDON, UNITED KINGDOM, SE13 6TD 10148559 2019-04-30 17,683 0
FONCALL LTD 25 BOULEVARD, HULL, HU3 2TS 09303497 2018-11-30 17,528 0
KEY TEN MARKETING LIMITED 106 WHITWORTH PARK DRIVE, DURHAM, DURHAM, UNITED KINGDOM, DH4 6GN 10935325 2018-08-31 17,130 0 62090-Other information technology service activities
70229-Management consultancy activities other than financial management
SLV8 LIMITED ROCKLEY HOUSE MEADWAY, FRIMLEY, CAMBERLEY, SURREY, GU16 8TQ 08983471 2019-04-30 16,748 0
POWER DESIGN AND MEDIA LTD 92 PENNY LANE, WARRINGTON, ENGLAND, WA5 4DS 11026771 2018-10-31 16,572 0
RIO NAPO COMMUNICATIONS LIMITED 85 CHUDLEIGH ROAD, LONDON, ENGLAND, SE4 1JX 07680738 2018-06-30 16,517 0 59200-Sound recording and music publishing activities
SL PHARMA SALES AND MARKETING LIMITED 71-75 SHELTON STREET, LONDON, UNITED KINGDOM, WC2H 9JQ 10685596 2018-03-31 16,430 0 74909-Other professional, scientific and technical activities not elsewhere classified
SCISSOR INDUSTRIAL LTD. 16 OAKLANDS FOLD, ADEL, LEEDS, ENGLAND, LS16 8NT 09054841 2018-03-31 15,917 0 47910-Retail sale via mail order houses or via Internet
ROOKSNEST LIMITED THE HOMESTEAD BALLINGER ROAD, GREAT MISSENDEN, BUCKS, UNITED KINGDOM, HP16 9QH 10243011 2018-06-30 15,625 0
KERVED LTD 86-90 PAUL STREET, LONDON, EC2A 4NE 08747877 2018-10-31 15,137 0
TAG N STRIPE LIMITED 11/12 HALLMARK TRADING CENTRE, FOURTH WAY, WEMBLEY, MIDDLESEX, HA9 0LB 08614542 2018-07-31 14,948 0
TOTALSCOPE IT SERVICES LIMITED 40 FAREHAM CLOSE, WALTON-LE-DALE, PRESTON, LANCASHIRE, PR5 4JX 05516666 2018-07-31 14,943 0 62012-Business and domestic software development
62090-Other information technology service activities
BRAND BY DESIGN LIMITED ROSE COTTAGE ANDREW HILL LANE, HEDGERLEY, SLOUGH, SL2 3UL 06356796 2018-12-31 14,930 0
FOLIO CREATIVE COMMUNICATION LIMITED RADIUS HOUSE 51, CLARENDON ROAD, WATFORD, ENGLAND, WD17 1HP 02059833 2018-12-31 14,688 0 90030-Artistic creation
BLOG AUTHENTIC LTD. 6 BRADING ROAD, BRIGHTON, ENGLAND, BN2 3PD 10647614 2018-03-31 14,265 0
ART CONNECTION CREATIVE SERVICES LIMITED 3 BATH MEWS, BATH PARADE, CHELTENHAM, GLOUCESTERSHIRE, ENGLAND, GL53 7HL 04636803 2017-06-30 14,160 0
SIMPLE MARKETING STUDIO LTD 17 PEACOCK CLOSE, SHEFFIELD, ENGLAND, S21 1BF 10326665 2018-08-31 14,107 0 96090-Other service activities not elsewhere classified
RABBIT ADVENTURES LTD 21 VINE TREE AVENUE, CREWE, CW2 7NT 08907674 2018-02-28 14,038 0 47910-Retail sale via mail order houses or via Internet
62012-Business and domestic software development
74202-Other specialist photography
2B INTL LTD 37 LITTLE CROSS HOUSE, PHIPPS STREET, BRISTOL, BS3 1SQ 06712876 2018-09-30 13,554 0 47910-Retail sale via mail order houses or via Internet
85590-Other education not elsewhere classified
COCHRANE CONSULTING LIMITED 70 WEST COKER ROAD, YEOVIL, SOMERSET, BA20 2JA 03335971 2019-03-31 13,508 0 47990-Other retail sale not in stores, stalls or markets
61100-Wired telecommunications activities
62012-Business and domestic software development
GET DINERS LIMITED 21 MONKS AVENUE, BARNET, HERTFORDSHIRE, UNITED KINGDOM, EN5 1BZ 09940446 2018-01-31 13,227 0
MARKER LAB LTD 72 WADE STREET, STOKE-ON-TRENT, ST6 1HN 08156344 2018-03-30 12,952 0 62020-Information technology consultancy activities
MARKETMEDIA LTD 86-90 PAUL STREET, LONDON, EC2A 4NE 07765565 2018-09-30 12,643 0 73120-Media representation services
VERTICAL IMAGE LTD THE ATRIUM, CURTIS ROAD, DORKING, SURREY, RH4 1XA 05701189 2018-12-31 11,493 0
SWAN VENTURES LTD 26 THE UPLANDS, STAFFORD, ENGLAND, ST18 0SH 10055888 2018-03-31 11,411 0 70229-Management consultancy activities other than financial management
WIMPO CAPITAL INVESTMENTS LIMITED 12 HELMSHORE WALK, MANCHESTER, ENGLAND, UNITED KINGDOM, M13 9TH 10664581 2018-03-31 11,395 0 45190-Sale of other motor vehicles
56290-Other food services
85590-Other education not elsewhere classified
ADRIEN MARAZZI EUROPE LIMITED 27 OLD GLOUCESTER STREET, LONDON, UNITED KINGDOM, WC1N 3AX 10176963 2018-05-31 11,125 0 47990-Other retail sale not in stores, stalls or markets
THE DIFFERENCE HOLDINGS LTD 31 BROWNFIELD STREET, LONDON, ENGLAND, E14 6ND 09755775 2018-09-30 11,000 0
STRETTO CREATIVE LIMITED 116 DUNFORD ROAD, HOLMFIRTH, WEST YORKSHIRE, HD9 2DT 07324562 2018-05-04 10,781 0
SPECTEL PRODUCTIONS LIMITED GRANSDEN HOUSE, STOKE PRIOR, LEOMINSTER, HEREFORDSHIRE, HR6 0NB 01805832 2018-03-31 10,367 0
BUMP LITE LTD. PARK FARM, MILEHAM, KINGS LYNN, NORFOLK, PE32 2RD 08077708 2018-03-31 10,260 0
INEO R&D LTD INTERNATIONAL HOUSE, LONDON, ENGLAND, EC1A 2BN 09610186 2017-05-31 10,131 0 70229-Management consultancy activities other than financial management
DAVIDCOURREAU LTD 12 JOHN PRINCES STREET, LONDON, UNITED KINGDOM, W1G 0JR 11170991 2018-08-31 10,080 0
EXTRA SURE LEGAL CARE LIMITED 101 NEW INN LANE, NEW INN LANE, STOKE-ON-TRENT, ST4 8HA 07995954 2018-03-31 9,877 0
BE SEEN BE FOUND LTD 18 PATCH WOOD GARDENS, WAKEFIELD, ENGLAND, WF2 6TT 10875014 2019-07-31 9,698 0 73120-Media representation services
VELOXIO LIMITED COTTON COURT, CHURCH STREET, PRESTON, PR1 3BY 08918752 2018-06-30 9,518 0 43341-Painting
RSS CREATIVE DESIGN LIMITED 36 ROLLS PARK ROAD, CHINGFORD, LONDON, WALTHAM FOREST, E4 9BH 07364237 2017-09-30 9,360 0
ROCKWELL MEDIA LTD. 2 BURNETT WAY, HUNTINGDON, CAMBRIDGESHIRE, PE29 1EP 08212710 2018-09-30 9,158 0
ON & OFF CREATIVE LTD. RIDGEDALE, WHITES HILL, BRISTOL, AVON, BS5 8UA 08667904 2018-08-31 8,979 0 56210-Event catering activities
56290-Other food services
MYG21 LIMITED 10 PHILPOT LANE, LONDON, ENGLAND, EC3M 8AA 08912213 2017-12-31 8,937 0
JAX ENTITIES LIMITED 8A HIGHFIELD CLOSE, SURBITON, ENGLAND, KT6 5JG 10514983 2018-12-31 8,350 0
SAMUEL CLAY LIMITED WOODBURN, FLAT 2, CLEVEDON, UNITED KINGDOM, BS21 7SE 10405119 2018-08-31 8,295 0
EMPIRE ADVERTISING LTD MILL COTTAGE, LETCOMB BASSET, ENGLAND, OX12 9LL 10978108 2019-03-31 8,159 0
TURBINE DIGITAL LTD 13 OAKWOOD ROAD, RAYLEIGH, ESSEX, SS6 9JH 07212009 2017-04-30 7,401 0 62020-Information technology consultancy activities
HIRE A FIELD LTD HORIZONS LEATHERHEAD ROAD, LEATHERHEAD, SURREY, ENGLAND, KT22 0ET 10051180 2019-03-31 7,207 0 62090-Other information technology service activities
MD MARKETING CONSULTANCY LTD 50 RUSSELL ROAD, TODDINGTON, BEDFORDSHIRE, LU5 6QF 08929512 2018-05-04 7,135 0
WHAT MATTERS MOST LTD LYDCOTT FARM LYDCOTT LANE, LOOE, CORNWALL, UNITED KINGDOM, PL13 1QJ 10024603 2019-02-28 6,734 0
BLUELK LTD 20-22 WENLOCK ROAD, LONDON, ENGLAND, N1 7GU 08044902 2018-04-30 6,521 0 59112-Video production activities
59120-Motion picture, video and television programme post-production activities
63120-Web portals
THE MARKETING GODS LTD. 86-90 PAUL STREET, LONDON, EC2A 4NE 09338916 2018-12-31 6,388 0
NO SCRUNCHIE LTD NO SCRUNCHIE, 4 HOLLY HOUSE, BOSTON MANOR ROAD, BRENTFORD, MIDDLESEX, TW8 8DQ 08226081 2018-09-30 6,239 0 73200-Market research and public opinion polling
CREATIVE HORIZONS LIMITED 16 WHISTLETS CLOSE, SHELFLEYS, NORTHAMPTON, NN4 9XB 03138122 2018-03-31 6,169 0
NIGEL BILLER CREATIVE LIMITED NIGEL BILLER CREATIVE LIMITED, THE COACH HOUSE, LODGE FARM, ISHAM, NN14 1HW 08155779 2018-07-31 6,164 0
UNWRITTEN LTD 3 BATH MEWS, BATH PARADE, CHELTENHAM, GLOUCESTERSHIRE, ENGLAND, GL53 7HL 09832890 2018-03-31 6,126 0 74100-specialised design activities
COPY AND CREATIVE LIMITED 11 RADNOR PARK CRESCENT, FOLKESTONE, KENT, UNITED KINGDOM, CT19 5AS 09624089 2018-05-04 5,875 0 58190-Other publishing activities
ULTIMATE SEO SERVICES LIMITED 450 LODGE AVENUE, DAGENHAM, ESSEX, RM9 4QS 09145424 2018-09-30 5,749 0
DREWWERKS LIMITED 6 LYNWOOD AVENUE, EPSOM, UNITED KINGDOM, KT17 4LQ 10960242 2018-09-30 5,654 0
PLANET PROFIT LIMITED THE BLACK FOX BARRELLS ROAD, THURSTON, BURY ST. EDMUNDS, ENGLAND, IP31 3SF 07262363 2018-03-31 5,573 0 66190-Activities auxiliary to financial intermediation not elsewhere classified
74901-Environmental consulting activities
74909-Other professional, scientific and technical activities not elsewhere classified
BAKOOS LIMITED UNIT 144 COMMUNICATIONS HOUSE, 9 ST. JOHNS STREET, COLCHESTER, ESSEX, CO2 7NN 08675152 2018-09-30 5,557 0 58190-Other publishing activities
63990-Other information service activities not elsewhere classified
73120-Media representation services
SM DIGITAL LTD UNIT 22, BULRUSHES BUSINESS PARK, EAST GRINSTEAD, UNITED KINGDOM, RH19 4LZ 09448119 2018-02-28 5,556 0 59112-Video production activities
62012-Business and domestic software development
74909-Other professional, scientific and technical activities not elsewhere classified
INFINITIVE AND BEYOND COPYWRITING LTD 41 RYE ROAD, LONDON, ENGLAND, SE15 3AX 09382619 2018-01-31 5,500 0
KREATIV FORDITAS LTD 20-22 WENLOCK ROAD, LONDON, N1 7GU. 08534943 2019-05-31 5,395 0 99999-Dormant Company
BLUMODE LIMITED 8 SADLERS CLOSE, CHATHAM, KENT, ENGLAND, ME5 9RR 10121590 2019-04-30 5,253 0
TOP E BUSINESS UK LIMITED 158 VICARAGE ROAD, SUNBURY-ON-THAMES, MIDDLESEX, TW16 7UB 08036957 2018-04-30 5,023 0 46900-Non-specialised wholesale trade
63990-Other information service activities not elsewhere classified
RICHMOND MEDIA LIMITED 6 POWER MILL HOUSE, 6 GREEN'S COURT, LONDON, W1F 0HG 06943035 2018-06-30 5,007 0 62020-Information technology consultancy activities
62090-Other information technology service activities
EXPEREVENT LTD 15 UPPER FRANCIS STREET, CAERPHILLY, UNITED KINGDOM, CF83 4DU 10879320 2018-07-31 4,915 0 82990-Other business support service activities not elsewhere classified
PARLAY MEDIA GROUP LTD 9 DAYMER GARDENS, PINNER, MIDDLESEX, ENGLAND, HA5 2HW 06599940 2018-11-20 4,895 0 59112-Video production activities
62012-Business and domestic software development
GOMOSOLO LTD 19 TARRANT, PETERBOROUGH, PE4 5EF 08014924 2018-04-30 4,815 0 62020-Information technology consultancy activities
62090-Other information technology service activities
73120-Media representation services
LOZZIPOOS DIGITAL LTD 4 HILLSIDE ROAD, DOVER, UNITED KINGDOM, CT17 0JQ 11011154 2018-10-31 4,625 0
ARDENT MARKETING LTD. FLAT A BOOTHFOLD HOUSE, ROSSENDALE, ENGLAND, BB4 9BD 10794917 2018-05-31 4,605 0
ENERGY MEDIA UK LIMITED FERNHILLS HOUSE, BURY, GTR MANCHESTER, UNITED KINGDOM, BL9 5BJ 10719889 2019-03-31 4,460 0 59113-Television programme production activities
PAINT IT BLACK LIMITED 10 ASHLEIGH CLOSE, RUGBY, ENGLAND, CV23 8UG 10191529 2018-05-31 4,145 0
DESIGN BY ART LIMITED 21 SALISBURY ROAD, LONDON, UNITED KINGDOM, E10 5RG 10452428 2018-10-31 4,138 0
NEW WEB LTD 1 PRINCETON MEWS, 167-169 LONDON ROAD, KINGSTON UPON THAMES, SURREY, KT2 6PT 05441217 2018-05-31 4,000 0
LANDSCAPECLICK LTD 38A GREEN END, BEDFORD, BEDFORDSHIRE, ENGLAND, MK41 0LJ 09593243 2017-05-31 3,956 0
SPOTTED MARKETING LIMITED 3 CASTELL MORGRAIG, CAERPHILLY, CF83 3JH 09359348 2018-12-31 3,900 0 70210-Public relations and communications activities
73120-Media representation services
CAPITAL 87 LTD 20-22 WENLOCK ROAD, LONDON, ENGLAND, N1 7GU 09002875 2018-04-30 3,875 0 70229-Management consultancy activities other than financial management
O.J VENTURES LTD 6 GARMAN CLOSE, LONDON, ENGLAND, N18 1XH 10631769 2019-02-28 3,670 0 69201-Accounting and auditing activities
69202-Bookkeeping activities
69203-Tax consultancy
SAFETYNET MEDIA SERVICES LTD 611 WHITWORTH ROAD, WHITWORTH, ROCHDALE, GREATER MANCHESTER, UNITED KINGDOM, OL12 0TB 09830354 2018-10-31 3,365 0 58142-Publishing of consumer and business journals and periodicals
REMARKABLE HOLIDAYS LIMITED 5 CROFTERS MILL, SUTTON-IN-CRAVEN, KEIGHLEY, WEST YORKSHIRE, BD20 7EW 07516210 2019-02-28 3,333 0
MOYESA AND COMPANY LIMITED 86-90 PAUL STREET, LONDON, ENGLAND, EC2A 4NE 10117062 2018-04-30 3,282 0
THAME HUB LTD 75 CROMWELL AVENUE, THAME, OXON, UNITED KINGDOM, OX9 3YE 10075621 2019-03-31 3,261 0
SHOPPING TROLLEY LTD SPITAL HOUSE, THE SPITAL, YARM, CLEVELAND, TS15 9EU 07402425 2018-03-31 3,167 0
STRIPEYGIRAFFE LTD BRYDEN JOHNSON KINGS PARADE, LOWER COOMBE STREET, CROYDON, SURREY, UNITED KINGDOM, CR0 1AA 07794554 2017-10-31 3,000 0
APART LIMITED 47 BLENHEIM ROAD, LONDON, ENGLAND, E6 3EG 08502742 2018-04-30 2,826 0 41202-Construction of domestic buildings
WHITOMEDIA LTD 20-22 WENLOCK ROAD, LONDON, ENGLAND, N1 7GU 10918465 2018-08-31 2,727 0 59112-Video production activities
62090-Other information technology service activities
NICK LUND ASSOCIATES LTD 3A MINTON PLACE, VICTORIA ROAD, BICESTER, OXFORDSHIRE, ENGLAND, OX26 6QB 09571275 2018-03-31 2,567 0 70229-Management consultancy activities other than financial management
PLAY GOLF NORTH EAST LTD 3 GREENSFIELD FARM COTTAGES, ALNWICK, NORTHUMBERLAND, UNITED KINGDOM, NE66 2AD 09417451 2018-02-28 2,400 0
HUGHES KROON LIMITED FLAT 5, ATLANTIC HOUSE, 51-57 UPPER RICHMOND ROAD, LONDON, UNITED KINGDOM, SW15 2RD 09886943 2018-11-30 2,252 0
P&D INTERACTIVE LTD. OFFICE 32, LONDON, UNITED KINGDOM, W1H 1PJ 10355763 2018-09-30 2,236 0 46900-Non-specialised wholesale trade
WRAITHFIRE LIMITED 7 CAMBRIDGE AVENUE, NEW MALDEN, SURREY, UNITED KINGDOM, KT3 4JY 10277514 2018-07-31 2,100 0 70210-Public relations and communications activities
APOLLONIA LIMITED 19 BAYTREE COURT, HOSPITAL HILL, CHESHAM, BUCKINGHAMSHIRE, HP5 1DX 05749544 2018-03-31 2,042 0
CHISWICK MEDIA LTD 72-74 CHISWICK HIGH ROAD, LONDON, ENGLAND, W4 1SY 07638402 2018-05-31 1,807 0
MOBIMARVEL LTD FLAT 4, 15 UPPER GROVE, SOUTH NORWOOD, LONDON, ENGLAND, SE25 6JX 09064692 2018-05-31 1,800 0
QUERCUS DIGITAL LIMITED 47 WINDLEY CLOSE, LONDON, UNITED KINGDOM, SE23 3YH 07574322 2018-03-31 1,773 0
PLYMOUTH HOUR LTD 36 NEW STREET, PLYMOUTH, UNITED KINGDOM, PL1 2NA 10360184 2018-09-30 1,645 0
ADICIAS DIGITAL MARKETING LTD 79 KENWORTHY ROAD, BRAINTREE, ESSEX, UNITED KINGDOM, CM7 1JJ 10553150 2018-01-31 1,636 0
TELL TAYLES LTD 27 OLD GLOUCESTER STREET, LONDON, UNITED KINGDOM, WC1N 3AX 10246964 2018-06-30 1,600 0
PROPERTOGRAPHY LTD 81 JOHN ARCHER WAY, LONDON, SW18 2TT 08707094 2018-09-30 1,489 0
MUSCLE LIMITED LOWER GOCKET BARN, LOWER GOCKET FARM, MONMOUTH, UNITED KINGDOM, NP25 4RL 10572800 2018-01-31 1,440 0
GENESIS INFINITY LIMITED OFFICE NO.2 SUN HOUSE 2-4 LITTLE PETER STREET, KNOTT MILL, MANCHESTER, GREATER MANCHESTER, ENGLAND, M15 4PS 08091199 2018-03-31 1,255 0 62012-Business and domestic software development
74100-specialised design activities
PUG MUG MARKETING LIMITED 18 RADNOR GREEN, WEST BROMWICH, ENGLAND, B71 1JL 10371822 2018-09-30 1,204 0
RELIABLE INDEX LTD 152 CITY ROAD, LONDON, EC1V 2NX 09228281 2018-09-30 1,200 0
JARED SOCIAL MEDIA LIMITED 4 HEATHSIDE GARDENS, WOKING, ENGLAND, GU22 7HR 10502361 2018-11-30 1,171 0 70210-Public relations and communications activities
73120-Media representation services
CLARHAM LTD 38A GREEN END, RENHOLD, BEDFORD, BEDFORDSHIRE, MK41 0LJ 08406137 2018-02-28 1,149 0 58110-Book publishing
RATHER SPLENDID LTD 150A CAMDEN STREET, LONDON, ENGLAND, NW1 9PA 10579853 2018-01-31 1,000 0 62020-Information technology consultancy activities
74100-specialised design activities
90030-Artistic creation
BALLOONINGMEDIA LTD 19 BRANDON HOUSE, JACOBS WELLS ROAD, BRISTOL, BS8 1DT 08011385 2018-03-31 1,000 0
SOLARBOX LONDON LTD 80 ASHLEY ROAD ASHLEY ROAD, HALE, ALTRINCHAM, ENGLAND, WA14 2UN 08992639 2018-04-30 990 0 90030-Artistic creation
LOVELEIGH MARKETING LTD 12 PROSPECT ROAD, HUNGERFORD, BERKSHIRE, ENGLAND, RG17 0JL 10072062 2019-03-31 980 0
THE SEARCH MARKETING SERVICE LTD 27 FARADAY CLOSE, ARBORFIELD, READING, ENGLAND, RG2 9NR 08377077 2018-01-31 970 0
SUPERSET LTD KEMP HOUSE, LONDON, LONDON, UNITED KINGDOM, EC1V 2NX 10645977 2019-03-31 960 0 70229-Management consultancy activities other than financial management
ECLIPSE STRATEGIC DESIGN LIMITED INTERNATIONAL HOUSE, LONDON, ENGLAND, EC1A 2BN 10150043 2018-04-30 950 0
"SKELBKITES"ADVERTISING LIMITED 30 BLACKWELL DRIVE, WATFORD, ENGLAND, WD19 4HW 07766848 2018-09-30 932 0
DORMER MARKETING LTD 3 HUNTLY ROAD, EDGBASTON, BIRMINGHAM, WEST MIDLANDS, B16 8JG 05817021 2018-05-31 800 0
KIKLAB LTD 82 BLANDFORD ROAD, BIRMINGHAM, WEST MIDLANDS, UNITED KINGDOM, B32 2LP 09594951 2018-05-31 800 0 62090-Other information technology service activities
EFGY LTD UNIT C3 KNIGHTS PARK INDUSTRIAL ESTATE, KNIGHT ROAD, ROCHESTER, KENT, ENGLAND, ME2 2LS 03952253 2018-03-31 750 0
LAWEE LTD 71 DREGHORN DRIVE, EDINBURGH, SCOTLAND, EH13 9PQ SC564778 2018-05-31 683 0 82990-Other business support service activities not elsewhere classified
PTOPY LTD 71-75 SHELTON STREET, COVENT GARDEN, LONDON, UNITED KINGDOM, WC2H 9JQ 09575421 2018-05-31 617 0
SYDKA LTD 5 GREEN BANK AVENUE, HALL GREEN, BIRMINGHAM, WEST MIDLANDS, B28 8AP 07758251 2018-08-31 608 0 62012-Business and domestic software development
85200-Primary education
QUBE LONDON LIMITED LOWER GROUND FLOOR, 111 CHARTERHOUSE STREET, LONDON, EC1M 6AW 06270459 2018-06-30 600 0
MANY SOLUTIONS LIMITED FAIRGATE HOUSE, SUITE B /MY BETTER ACCOUNTANCY/ KINGS ROAD, BIRMINGHAM, UNITED KINGDOM, B11 2AA 10725565 2018-04-30 571 0 63120-Web portals
RIPPLEOUT MARKETING LIMITED 6 WILLIAMSON ROAD, HIGH PEAK, DERBYSHIRE, ENGLAND, SK23 7AW 10102057 2018-04-30 550 0
BRADLEY CONSULTING LIMITED 8 KELVINDALE DRIVE, TIMPERLEY, ALTRINCHAM, CHESHIRE, WA15 6UY 03023181 2018-03-31 500 0
HARKII LIMITED 4TH FLOOR, LONDON, ENGLAND, EC1N 8UN 10757899 2018-05-31 500 0 58190-Other publishing activities
59112-Video production activities
BRANDCLOUD(UK) LTD 16A WROTTESLEY ROAD, LONDON, UNITED KINGDOM, NW10 5YL 10500559 2017-11-30 446 0 62012-Business and domestic software development
62090-Other information technology service activities
73120-Media representation services
JOB AFFAIR LIMITED OLIVE HOUSE, 25A ALBERT STREET, ILKESTON, UNITED KINGDOM, DE7 5GU 06436894 2017-12-31 383 0
SOLUTION FOR TECH LIMITED SOLUTION FOR TECH, 49 STATION ROAD, POLEGATE, EAST SUSSEX, BN26 6EA 07794925 2018-10-31 350 0 62020-Information technology consultancy activities
PROCLAIM DIGITAL LIMITED M6 STORAGE BOOST TOLLGATE DRIVE, STAFFORD, STAFFORDSHIRE, UNITED KINGDOM, ST16 3HS 10851818 2018-07-31 275 0 61200-Wireless telecommunications activities
62020-Information technology consultancy activities
85600-Educational support services
TLH ONLINE LIMITED 144 PENNANT ROAD, SWISS VALLEY, LLANELLI, DYFED, SA14 8HN 05955031 2018-10-31 250 0
4TH PHASE LTD 19 PARK ROAD, PLYMOUTH, UNITED KINGDOM, PL3 5DR 10511675 2018-12-31 250 0 70229-Management consultancy activities other than financial management
ENGLISH PASTORAL LTD. 20 EVESHAM PLACE, STRATFORD-UPON-AVON, WARWICKSHIRE, ENGLAND, CV37 6HT 10305844 2019-02-25 238 0 18130-Pre-press and pre-media services
70210-Public relations and communications activities
90030-Artistic creation
TRAVEL VIEWPOINT LIMITED 17 NORTHWICH ROAD, KNUTSFORD, UNITED KINGDOM, WA16 0AB 10440088 2018-10-31 232 0
TR PROMOTIONS EUROPA LTD. 37 RENNIE COURT, 11 UPPER GROUND, LONDON, UNITED KINGDOM, SE1 9LP 09963940 2019-01-31 224 0 74909-Other professional, scientific and technical activities not elsewhere classified
LOUISE SLOPER DESIGN LTD 38 BARNFIELD PLACE, ISLE OF DOGS, LONDON, E14 9YA 06686259 2018-09-30 212 0 82990-Other business support service activities not elsewhere classified
PURCHASEPOINT EVENTS LIMITED 1 MELLINGES CLOSE, WEST MALLING, KENT, ME19 6FW 05216508 2018-12-31 183 0
GOSSH LIMITED 28 GLADWYN ROAD, LONDON, SW15 1JY 07934936 2018-02-28 175 0 62090-Other information technology service activities
FOLLOWBACK MEDIA LTD 48 GOLDCREST, WILNECOTE, TAMWORTH, B77 5NS 08672618 2018-01-09 162 0 73120-Media representation services
L7 COMMUNICATIONS LIMITED 61 FOUNTAIN HOUSE, LONDON, ENGLAND, SW6 2TQ 08584828 2018-06-30 159 0
SAUCE - DM LIMITED 6 PENNINE WAY, POGMOOR, BARNSLEY, SOUTH YORKSHIRE, S75 2HT 05729985 2019-03-31 113 0
BRUCE TURNER ASSOCIATES LIMITED 1 MELLINGES CLOSE, WEST MALLING, KENT, ME19 6FW 04254300 2018-12-31 100 0
IRONESS ARTS LIMITED 7 HOBART GARDENS, CROYDON, SURREY, CR7 8LR 04779047 2019-05-31 30 0
UNIOMARKET LTD 102 MONKSFIELD WAY, SLOUGH, ENGLAND, SL2 1QU 08665929 2017-08-27 4 0 47910-Retail sale via mail order houses or via Internet
ALGORITHM HOLDINGS LIMITED 4 TITCHFIELD CLOSE, BURGESS HILL, WEST SUSSEX, RH15 0RX 06993177 2019-01-31 1 0
LOVEABLE LIMITED 31 BURLINGTON ROAD, THORNTON HEATH, SURREY, UNITED KINGDOM, CR7 8PG 10027037 2018-03-31 0 0
BBH HOLDINGS LIMITED 1ST FLOOR 2 TELEVISION CENTRE, 101 WOOD LANE, LONDON, ENGLAND AND WALES, UNITED KINGDOM, W12 7FR 03482404 0000-00-00 0 0 64209-Activities of other holding companies not elsewhere classified
MCCANN-ERICKSON NETWORK LIMITED BONIS HALL, PRESTBURY, MACCLESFIELD CHESHIRE, SK10 4EF 01977043 0000-00-00 0 0
LIGHTBOX CREATIV LIMITED 4385, 09093260: COMPANIES HOUSE DEFAULT ADDRESS, CARDIFF, CF14 8LH 09093260 2018-06-30 0 0
BUSINESS INTERCEPT LIMITED 30 GLASTONBURY HOUSE, ABBOTS MANOR, LONDON, SW1V 4NP 08956528 2018-07-31 0 0 62012-Business and domestic software development
62020-Information technology consultancy activities
70229-Management consultancy activities other than financial management
WINNER MEDIA LIMITED INTERNATIONAL HOUSE 24, LONDON, EC1A 2BN 10442737 2018-10-31 0 0 73120-Media representation services
BRING IT ON SOCIAL LTD 30 BARTON STREET, OLDHAM, UNITED KINGDOM, OL1 2NR 10311361 2018-08-31 0 0
NAPIER PARTNERSHIP LIMITED DONNINGTON PARK HOUSE, DONNINGTON PARK BIRDHAM ROAD, CHICHESTER, WEST SUSSEX, PO20 7DU 04138045 0000-00-00 0 0
BLUE SQUARE GROUP LIMITED TATE HOUSE, WATERMARK WAY, HERTFORD, HERTFORDSHIRE, ENGLAND, SG13 7TZ 09938132 0000-00-00 0 0
MCCANN MANCHESTER LIMITED BONIS HALL, PRESTBURY, MACCLESFIELD CHESHIRE, SK10 4EF 01993425 0000-00-00 0 0
THE EFFECTIVE DIRECTORIES LIMITED DATUM HOUSE, ELECTRA WAY, CREWE, CHESHIRE, ENGLAND, CW1 6ZF 06780706 2019-03-31 0 0
ROSEWOOD ADVERTISING LIMITED 109-110 VIGLEN HOUSE ALPERTON LANE, ALPERTON, HA0 1HD 03843446 2017-09-30 0 0
LARUNDA COMMUNICATIONS LIMITED ARCADIA HOUSE, NORTH SHIELDS, UNITED KINGDOM, NE29 0NU 10970175 2018-03-31 0 0 70210-Public relations and communications activities
73120-Media representation services
ADMETRICS MEDIA LTD 39 CHOBHAM ROAD, WOKING, SURREY, GU21 6JD 07247274 2018-12-31 0 0
MACLEOD BLAINE LIMITED 4 PIPPIN ROAD, EAST PECKHAM, TONBRIDGE, KENT, TN12 5BT 02805895 2018-03-31 0 0 62090-Other information technology service activities
BABBLAH LTD 12A WINCHESTER COURT, LONDON, UNITED KINGDOM, W8 4AB 10335867 2018-08-31 0 0 26110-Manufacture of electronic components
72190-Other research and experimental development on natural sciences and engineering
APL GROUP LIMITED 3 GROSVENOR GARDENS, LONDON, UNITED KINGDOM, SW1W 0BD 00235734 0000-00-00 0 0
FOREMAN & ASSOCIATES LIMITED LOGIX HOUSE, WROTHAM ROAD, MEOPHAM, KENT, ENGLAND, DA13 0QB 04425683 0000-00-00 0 0
THE HENLEY GROUP INTERNATIONAL LIMITED MARKET HOUSE, 33 MARKET PLACE, HENLEY-ON-THAMES, OXON, ENGLAND, RG9 2AA 05810119 2018-12-31 0 0
BARTLE BOGLE HEGARTY LIMITED 1ST FLOOR 2 TELEVISION CENTRE, 101 WOOD LANE, LONDON, ENGLAND AND WALES, UNITED KINGDOM, W12 7FR 01622226 0000-00-00 0 0
MEDIACOM HOLDINGS LIMITED 124 THEOBALDS ROAD, LONDON, WC1X 8RX 03525784 0000-00-00 0 0
HELLO ELEPHANT LTD 3 GROSVENOR GARDENS, LONDON, SW1W 0BD 09301267 2017-12-31 0 0
SEARCH FOCUSED LIMITED 11 LIDGETT HILL, LEEDS, UNITED KINGDOM, LS8 1PE 10751971 2018-05-31 0 0
FUTURO MARKETING LIMITED 178 LOWER RICHMOND ROAD, LONDON, ENGLAND, SW15 1LY 10633951 2018-02-28 0 0 56101-Licensed restaurants
56102-Unlicensed restaurants and cafes
56103-Take-away food shops and mobile food stands
BEAU LOCHS LIMITED THE THATCHED HOUSE WESTLAND GREEN, WARE, ENGLAND, SG11 2AL 05287269 2018-04-30 0 0
HUSTLE DIGITAL LTD 3 GROSVENOR GARDENS, LONDON, SW1W 0BD 09301204 2017-12-31 0 -33,000
MEDIACOM GROUP LIMITED 124 THEOBALDS ROAD, LONDON, WC1X 8RX 01889399 0000-00-00 0 0
OLLO LIMITED 188 BROUGHTON AVENUE, AYLESBURY, BUCKINGHAMSHIRE, HP20 1PX 05223301 2019-03-31 0 0 62012-Business and domestic software development
JAPAN NAKAMA LTD 116 MORTLAKE ROAD, ILFORD, UNITED KINGDOM, IG1 2SZ 10111470 2019-04-30 0 0 63120-Web portals
90030-Artistic creation
POSTER PUBLICITY GROUP LIMITED THE INSPIRE, HORNBEAM PARK, HARROGATE, HG2 8PA 04390823 0000-00-00 0 0
FRAZER ABBEY STORY LIMITED 10 STABLES END, ORPINGTON, KENT, BR6 8PD 01161465 2019-01-31 0 0
TOURIST POINT LTD 47 DEAN STREET, LONDON, W1D 5BE 09856901 2018-11-30 0 0 73200-Market research and public opinion polling
MMS UK HOLDINGS LIMITED 1ST FLOOR 2 TELEVISION CENTRE, 101 WOOD LANE, LONDON, ENGLAND AND WALES, UNITED KINGDOM, W12 7FR 04982095 0000-00-00 0 0
GLO-BED (UK) LTD 82 LONGFIELD AVENUE, FAREHAM, HAMPSHIRE, PO14 1JR 05226042 2019-01-31 0 0
SLS SOFTWARE LIMITED BARTON HOUSE STOWFORD, LEWDOWN, OKEHAMPTON, DEVON, EX20 4BZ 06021327 2018-12-31 0 0 62012-Business and domestic software development
62020-Information technology consultancy activities
MMEDIA GROUP LIMITED ENTERPRISE HOUSE AVIATION PARK, WEST BM INTL AIRPORT, CHRISTCHURCH, DORSET, BH23 6NW 05306827 2018-12-31 0 0
QUINT BRANDS LTD. 92 WHEATLANDS, HOUNSLOW, ENGLAND, TW5 0SB 10115757 2018-04-30 0 0
RANK ME HIGHER LTD FLAT M RONDU HOUSE, LONDON, ENGLAND, NW2 3EY 11071512 2018-11-30 0 0 70229-Management consultancy activities other than financial management
WPP RUSSELL UK ONE LIMITED SEA CONTAINERS HOUSE, 18 UPPER GROUND, LONDON, UNITED KINGDOM, SE1 9GL 10931798 0000-00-00 0 0
MEDIA MARKETING LIMITED 2A TORRIANO AVENUE, LONDON, LONDON, ENGLAND 10659858 2018-03-31 0 0
ELBEO UK LIMITED 1 MEADOW DRIVE, PILLMERE, SALTASH, CORNWALL, PL12 6XJ 07313998 2018-07-31 0 0 70229-Management consultancy activities other than financial management
73200-Market research and public opinion polling
WPP RUSSELL UK TWO LIMITED SEA CONTAINERS HOUSE, 18 UPPER GROUND, LONDON, UNITED KINGDOM, SE1 9GL 10933317 0000-00-00 0 0
SHELTON FLEMING GROUP LIMITED 3RD FLOOR, SHAND HOUSE, 14-20 SHAND STREET, LONDON, UNITED KINGDOM, SE1 2ES 01925750 0000-00-00 0 0
B COMMERCIAL LIMITED 11 HAYES CHASE, WEST WICKHAM, KENT, BR4 0HU 04115525 2018-03-31 0 0
HUMAN.CELEBRATION LTD 23 OLD DOVER ROAD, BLACKHEATH, LONDON, ENGLAND, SE3 7BT 10531973 2017-12-31 0 0 59120-Motion picture, video and television programme post-production activities
59200-Sound recording and music publishing activities
74100-specialised design activities
PUBLICIS MEDIA LIMITED 1ST FLOOR 2 TELEVISION CENTRE, 101 WOOD LANE, LONDON, ENGLAND AND WALES, UNITED KINGDOM, W12 7FR 04244479 0000-00-00 0 0
DRAVINA ENTERPRISES LTD. 21 FINSBURY STREET, ALFORD, ENGLAND, LN13 9BH 10422443 2018-10-31 0 0 47910-Retail sale via mail order houses or via Internet
POSTER PUBLICITY HOLDINGS LTD THE INSPIRE, HORNBEAM PARK, HARROGATE, HG2 8PA 03170737 0000-00-00 0 0
MERRIE MARKETING LIMITED OLD ORCHARD, DYMOCK, GLOUCESTERSHIRE, GL18 2BN 07918757 2018-06-30 0 0 70229-Management consultancy activities other than financial management
BBH COMMUNICATIONS LIMITED 1ST FLOOR 2 TELEVISION CENTRE, 101 WOOD LANE, LONDON, ENGLAND AND WALES, UNITED KINGDOM, W12 7FR 02352341 0000-00-00 0 0
DMC3 LTD 43 CONISCLIFFE ROAD, DARLINGTON, CO. DURHAM, DL3 7EH 04561257 2018-09-30 0 0 85590-Other education not elsewhere classified
SMORGASBORD STUDIO LIMITED 8A MORGAN ARCADE, CARDIFF, WALES, CF10 1AF 06640681 2019-03-31 0 0 74100-specialised design activities
SEIQ LTD 247 STENSON ROAD, DERBY, ENGLAND, DE23 1JN 10022018 2018-02-28 0 0
CONNAUGHT WENLOCK PARTNERSHIP LTD THE STUDIO, 42A PRINCES GARDENS, PETERBOROUGH, CAMBRIDGESHIRE, PE1 4DP 03337824 2018-12-31 0 0 58141-Publishing of learned journals
58190-Other publishing activities
82990-Other business support service activities not elsewhere classified
CP INVESTMENT (UK) LIMITED AD HOUSE, 52 EAST PARADE, HARROGATE, NORTH YORKSHIRE, HG1 5LT 05850522 0000-00-00 0 0
WPP SAMSON LIMITED SEA CONTAINERS HOUSE, 18 UPPER GROUND, LONDON, UNITED KINGDOM, SE1 9GL 10938469 0000-00-00 0 0
YH LIMITED 3 FORBURY PLACE, FORBURY ROAD, READING, BERKSHIRE, ENGLAND, RG1 3YL 04193755 0000-00-00 0 0
CLEAR CHANNEL HOLDINGS LIMITED 33 GOLDEN SQUARE, LONDON, W1F 9JT 03565606 0000-00-00 0 0
AYESHA DE SILVA CONSULTING LIMITED 37 BRAESIDE, BECKENHAM, KENT, BR3 1ST 08190678 2018-08-31 0 0
THE-ADS-THAT-WORK-NETWORK-UK LIMITED 0 0
WILSON AND COOKE MARKETING LIMITED 0 0
CMS ENERGY LIMITED 0 0
THE DIGITAL SOLUTIONS TEAM LTD 0 0
PENN COMMUNICATIONS LIMITED 0 0
TOTAL RESEARCH SERVICES LIMITED 0 0
STUDIO KAIOTI LIMITED 10 NORTH LANE, HEADINGLEY, LEEDS, ENGLAND, LS6 3HE 0 0
SUMO MARKETING LIMITED 40 FAWE PARK ROAD, LONDON, UNITED KINGDOM, SW15 2EA 0 0
TURISMOTEC LTD 0 0
UBIQUITOUS LIMITED 0 0
ADVERTISING M&A LIMITED 0 0
RADAR MANAGEMENT LIMITED 0 0
STUDIO NASH LTD LITTLE GABLES HAYES LANE, WOODMANCOTE, CIRENCESTER, GLOUCESTERSHIRE, ENGLAND, GL7 7EE 0 0
LE BOOK LIMITED 0 0
SUNDERLAND LEAFLET DISTRIBUTION LTD UNIT 10 BREWERY LANE, FELLING, GATESHEAD, TYNE AND WEAR, NE10 0EY 0 0
WORDS BY JAMES ROSE LIMITED 0 0
SHOAL CONTENT LIMITED 0 0
SHUTTLEROCK UK LIMITED 0 0
J W M PROMOTIONS LIMITED 0 0
STUDENT JUSTICE LIMITED 14 BRIERY MEADOWS, HEMINGFIELD, BARNSLEY, UNITED KINGDOM, S73 0QW 0 0
G2 LONDON LIMITED 0 0
UK TRAVEL AWARDS LTD 0 0
EYE CORP (UK) LIMITED 0 0
MEDIA MATTERS UK LTD 0 0
BRAND RAGE LIMITED 0 0
COLD CALL CONTROL LIMITED 0 0
WESTWOOD MARKETING AND DESIGN CONSULTANCY LTD 0 0
STUDIO B61 LTD 23 (UNIT 3), LISLE AVENUE, KIDDERMINSTER, WORCESTERSHIRE, ENGLAND, DY11 7DF 0 0
SUFFOLK DIGITAL MARKETING LTD 12 BIRCH ROAD, ONEHOUSE, STOWMARKET, ENGLAND, IP14 3EZ 0 0
ALLAN BURROWS LIMITED 0 0
TRAKTOR LIMITED 0 0
TRU CREATIVE LIMITED 0 0
FORTRESS ADVERTISING LIMITED 0 0
IDENTYTECH LTD 0 0
STUDIO CHANGE LTD GROUND FLOOR, 13 CABLE COURT PITTMAN WAY, FULWOOD, PRESTON, ENGLAND, PR2 9YW 0 0
BARRADALE LEAGAS ARNOLD CAMPBELL LIMITED 0 0
SUKISEO LIMITED 14 HALEGATE, WOOTTON, BEDFORD, ENGLAND, MK43 9LD 0 0
SMH MARKETING LIMITED 0 0
ON ADVERTISING LTD 0 0
FOAM AGENCY LIMITED 0 0
APPNEXUS OAS EUROPE LIMITED 0 0
JND DIGITAL LTD 0 0
SUMMIT 4 LIMITED THE MOORINGS, MARSH LANE, BEAL, GOOLE, DN14 0SL 0 0
MANLEYS LIMITED 0 0
SNAX MEDIA LTD 0 0
SPORTS MANAGEMENT GROUP LIMITED 0 0
TRUE RADICALS LTD. 0 0
MIRABELLE COMMUNICATIONS LIMITED 0 0
SUN CITY MEDIA GROUP LTD C/O THE ACCOUNTANCY PARTNERSHIP, TWELVE QUAYS HOUSE, EGERTON WHARF, WIRRAL, UNITED KINGDOM, CH41 1LD 0 0
THE EXECUTIVE FOLIO COMPANY LIMITED 0 0
REACHLOCAL UK LIMITED 0 0
MR PRESIDENT PARTNERSHIP LTD. 0 0
ISOBEL WORLDWIDE LIMITED 0 0
WASSERMAN EXPERIENCE LIMITED 0 0
SUBNECTO LTD KEMP HOUSE, 160 CITY ROAD, LONDON, UNITED KINGDOM, EC1V 2NX 0 0
STYLIER LTD 4385, 13344869: COMPANIES HOUSE DEFAULT ADDRESS, CARDIFF, CF14 8LH 0 0
FALLON LONDON LIMITED 0 0
SCI SCIENTIFIC COMMUNICATIONS AND INFORMATION UK LTD 0 0
SPORTSGLOBAL LIMITED 0 0
GEOMETRY GLOBAL LIMITED 0 0
STUADS LTD 0 0
DISCO INTERNATIONAL LIMITED 0 0
SUCCESS ORIENTATION LTD OFFICE NO 5 THE ROUND HOUSE, DORMANS PARK ROAD, EAST GRINSTEAD, UNITED KINGDOM, RH19 2EN 0 0
RAINBOW CREATIVE LIMITED 0 0
ZEST EUROPE LIMITED 0 0
ORIENTAL NEWS LIMITED 0 0
DETAILMEDIUM LIMITED 0 0
SUGAR MADDEN LTD ASM HOUSE, 103A KEYMER ROAD, HASSOCKS, WEST SUSSEX, UNITED KINGDOM, BN6 8QL 0 0
DANTE AWARDS LIMITED 0 0
STUDIO-ONE VC LIMITED 10 BADENTOY CRESCENT, PORTLETHEN, ABERDEEN, SCOTLAND, AB12 4YD 0 0
TREVENNA MANAGEMENT LIMITED 0 0
LIFE PR LIMITED 0 0
UNRULY HOLDINGS LIMITED 0 0
CHOWANS LIMITED 0 0
PRINCIPLES COMMUNICATIONS LIMITED 0 0
STUDIOTREW LIMITED 87 SUNDERLAND ROAD, FORESTHILL, UNITED KINGDOM, SE23 2PS 0 0
UNITED LONDON COMMUNICATIONS LIMITED 0 0
ARTSHIP LIMITED 0 0
OTM (UK) LIMITED 0 0
LIVE 24 SEVEN LIMITED 0 0
SHEVLIN LIMITED 0 0
AXONIX LTD 0 0
WHITESHEEP LTD 0 0
FRONTLINE MEDIA LTD 0 0
STWILKINSON LTD FLAT 2, 9, REARDON PATH, LONDON, UNITED KINGDOM, E1W 2AN 0 0
COORS ON-LINE LIMITED 0 0
AFFILINET LIMITED 0 0
EATSTUDENT LIMITED 0 0
SOURCE CORP LTD 0 0
MAYNARD MALONE LIMITED 0 0
ACCORD HOLDINGS LIMITED 0 0
STUDIO MILTOS BOTTIS LTD HALE HOUSE, UNIT 5, 296A GREEN LANES, PALMERS GREEN, LONDON, ENGLAND, N13 5TP 0 0
GREENSPACE LIMITED 0 0
DENTSU SPORTS EUROPE, LIMITED 0 0
THE GOOD AGENCY GROUP HOLDINGS LIMITED 0 0
ITALIANS CARD LTD 0 0
KINO-MO LTD 0 0
STUDIO PROJECT LIMITED 34 CLAREMONT ROAD, WESTCLIFF-ON-SEA, ENGLAND, SS0 7DZ 0 0
FPP DESIGN LIMITED 0 0
THE COMPLETELY DIGITAL DESIGN COMPANY LIMITED 0 0
AITH (UK) LIMITED 0 0
KINDRED DIGITAL LIMITED 0 0
REALLY GREAT IDEAS LIMITED 0 0
ABOUT TIME SOFTWARE LIMITED 0 0
ACTIVESQUARE LIMITED 0 0
LIMELIGHT MARKETING COMMUNICATIONS LIMITED 0 0
STUDIO TWO CONSULTANCY LTD 68 WAVENDENE AVENUE, EGHAM, ENGLAND, TW20 8JY 0 0
POLYMATH (UK) LTD. 0 0
B.S. & T. LIMITED 0 0
CITIBOND MEDIA LIMITED 0 0
IMPRESSION DESK TECHNOLOGIES LIMITED 0 0
STUDIOBLAYCO LTD 21 OLIVE ROAD, 21 OLIVE ROAD, LANCASTER, LANCASHIRE, ENGLAND, LA1 2BZ 0 0
PORTAL COMMUNICATIONS LIMITED 0 0
STUDIO BRINK LTD 2 KINGS ROAD, LONDON COLNEY, HERTS, ENGLAND, AL2 1EN 0 0
DESIGNERS ANONYMOUS LIMITED 0 0
WORLD ADVISERS LTD. 0 0
INXACT LIMITED 0 0
FC2015 LIMITED 0 0
BUONGIORNO UK LIMITED 0 0
ADLINK INTERNATIONAL (UK) LTD 0 0
STUDIO FARMILOE LTD 17 ALPERTON STREET, LONDON, ENGLAND, W10 4NG 0 0
STUDIOCORKO LTD TOP FLOOR, THE OLD MILL FRYS YARD, BRIDGE STREET, GODALMING, SURREY, ENGLAND, GU7 1HP 0 0
MARLOWE YARD LIMITED 0 0
STUDIO BUZZWORD LTD 16 HALL FARM CLOSE, RICCALL, YORK, UNITED KINGDOM, YO19 6NT 0 0
BULLET MARKETING LIMITED 0 0
SPYGLASS INVESTMENT LTD. 0 0
SAGISTER LIMITED 0 0
SMRH210115 LIMITED 0 0
CAPTURE MARKETING LTD 0 0
SHIELD MANAGEMENT LTD 0 0
STUDIO FIELD LTD 2.19A DALE STREET, MANCHESTER, ENGLAND, M1 2HS 0 0
LORRIAN PROPERTIES LIMITED 0 0
CLEVERBELL (UK) LIMITED 0 0
VICROSS ASSOCIATES LIMITED 0 0
NODDINGTON TECHNOLOGIES LIMITED 0 0
INSIDE EDGE SPORTS CONSULTING LTD 0 0
RON DE YOUNG ASSOCIATES LIMITED 0 0
ROMANSKI LIMITED 0 0
STUDIO KICK LTD C/O TAXEVO, 6 ST CROSS ROAD, WINCHESTER, HAMPSHIRE, UNITED KINGDOM, SO23 9HX 0 0
SUMO MARKETING SERVICES LTD SUMO HQ CLAVERING HOUSE, CLAVERING PLACE, NEWCASTLE, UNITED KINGDOM, NE1 3NG 0 0
IMA ELECTRONIC MEDIA LIMITED 0 0
EXPOSURE EVENTS UK LIMITED 0 0
RUBANS INVESTMENT LTD 0 0
LAWRENCE DAVIS DESIGN LIMITED 0 0
THE HOME NETWORK TLA (GB) LIMITED 0 0
STUDIO NEO LTD ASH TREE HOUSE OLD ROAD, SCALDWELL, NORTHAMPTON, ENGLAND, NN6 9JZ 0 0
SOLARIS HEALTHCARE NETWORK LIMITED 0 0
SUNFLOWER ADVERTISING DESIGN CO., LTD APARTMENT 1804, 55 UPPER GROUND, LONDON, ENGLAND, SE1 9EY 0 0
NXO LIMITED 0 0
CLEAN FUTURE LTD. 0 0
VICINITY GLOBAL LIMITED 0 0
SCP ACQUISITION TOPCO LIMITED 0 0
PPOP LTD 0 0
ZOO LOGICAL LTD. 0 0
STUDENT PAGES MEDIA GROUP LIMITED 199 BURY NEW ROAD, WHITEFIELD, MANCHESTER, M45 6GE 0 0
LAVERY ROWE ADVERTISING LIMITED 0 0
AIRPORT ADVERTISING (UK) LIMITED 0 0
ELEVENTEN LIMITED 0 0
EUROLINK PROFESSIONALS LTD 0 0
ROK AGENCY LIMITED 0 0
MEDIAFORCE MANCHESTER LIMITED 0 0
STUDIO BE LIMITED 1A THE CIRCUIT, THE CIRCUIT, MANCHESTER, ENGLAND, M20 3RA 0 0
SUGAR BRANDED LTD 27-29 BALDWIN STREET, BALDWIN STREET, BRISTOL, ENGLAND, BS1 1LT 0 0
DAVID CLARK (DESIGN GROUP) LIMITED 0 0
THE FAB AWARDS LIMITED 0 0
ONE CLICK MARKETING LIMITED 0 0
NAMORA REAL LTD 0 0
THE BIG IDEA MARKETING AND MEDIA LIMITED 0 0
DEVILLIERS COMMUNICATIONS LTD 0 0
SEQUEL COMMUNICATIONS LIMITED 0 0
ISLE COMMUNICATIONS GROUP LIMITED 0 0
SUMMIT DIGITAL MARKETING LTD 100 RIDLEYS CLOSE, COUNTESTHORPE, LEICESTER, ENGLAND, LE8 5AH 0 0
V C C P LIMITED 0 0
AFFILIATE MEDIA SOLUTIONS LIMITED 0 0
22 SQUARED LIMITED 0 0
SOCIAL MEDIA MARKETING CONSULTING LTD 0 0
SAVOY INTERNATIONAL LTD 0 0
IDENTICA LIMITED 0 0
SUN SPROUT LTD 2 HOPGRASS FARM COTTAGE, BATH ROAD, HUNGERFORD, ENGLAND, RG17 0SJ 0 0
WE ARE DISCOUNTS LIMITED 0 0
GOOD FULL STOP LIMITED 0 0
CONTINENTAL ANGEL LIMITED 0 0
RACING SARDINE LIMITED 0 0
WIEDEN & KENNEDY UK LIMITED 0 0
SUBPIXEL LTD SPRINGWOOD HOUSE LOW LANE, HORSFORTH, LEEDS, WEST YORKSHIRE, LS18 5NU 0 0
STYLIST GLOBAL LIMITED 10 WOOLSINGTON CLOSE,, NOTTINGHAM,, UNITED KINGDOM, NG8 6NZ 0 0
ROD MITCHELL LIMITED 0 0
Z-CARD LIMITED 0 0
MARKETING DERBY LIMITED 0 0
TRUSTED DEALERS LIMITED 0 0
CREATIVE POWER COACHING & CONSULTING LTD 0 0
UNDERGROUND BLC LIMITED 0 0
SUCCESS WITH SYSTEMS LTD 20-22 WENLOCK ROAD, LONDON, ENGLAND, N1 7GU 0 0
DYNAMIC INITIATIVES LIMITED 0 0
TELLISRANGE LTD 0 0
INVIVALINK LIMITED 0 0
TEAM DARWIN LIMITED 0 0
SEM SEARCH AGENCY LTD 0 0
PALLADIO LIMITED 0 0
SUGAR MARKETING LIMITED CHAPMAN HOUSE (SECOND FLOOR), CHAPMAN WAY, TUNBRIDGE WELLS, ENGLAND, TN2 3EF 0 0
COMMUNICATE UK LIMITED 0 0
STUDIO29 DESIGN LTD 33 HARRISON ROAD, HALIFAX, HX1 2AF 0 0
YOUR FUTURE (LONDON) LIMITED 0 0
BFMG LIMITED 0 0
CHIME 360 LIMITED 0 0
RSV MEDIA LIMITED 0 0
RAPIER DESIGN LIMITED 0 0
STUDYSPACE GLOBAL LTD FLAT11 MASEFIELD COURT, 111C SHIRLAND ROAD, LONDON, UNITED KINGDOM, W9 2EJ 0 0
TBWA\MCR LIMITED 0 0
ONAGENCY LIMITED 0 0
MERLIN INFLATABLES CO LIMITED 0 0
AUJLAY ENTERPRISES LTD 0 0
1 MM MEDIA LIMITED 0 0
BRANDWELL AGENCY LIMITED 0 0
HERESY IMS GROUP LIMITED 0 0
STYLE COLLATED LTD 5A FALMER ROAD, FALMER ROAD, ENFIELD, ENGLAND, EN1 1PZ 0 0
SIGNATURE TRADING LIMITED 0 0
NOTICE MEDIA LTD 0 0
CONNECTED MEDIA LTD 0 0
OUR CREATIVE DEPARTMENT LTD 0 0
FREUD COMMUNICATIONS LIMITED 0 0
SUB-LINE CONSULTING LTD ELITE HOUSE, 155 MAIN ROAD, BIGGIN HILL, KENT, ENGLAND, TN16 3JP 0 0
TRAVELCLASSIFIED LIMITED 0 0
STUDIO MOLGA LTD 9 ADDINGTON STREET, MARGATE, KENT, UNITED KINGDOM, CT9 1PN 0 0
EDUCATIONAL COMMUNICATIONS LIMITED 0 0
TEAM TEXTER LIMITED 0 0
WHITE KNOLL LIMITED 0 0
BASTIN DAY WESTLEY LIMITED 0 0
KROW COMMUNICATIONS LIMITED 0 0
STUDIO RCW LIMITED HUCKLETREE, EXPRESS BUILDING, 3 GEORGE LEIGH STREET, MANCHESTER, ENGLAND, M4 5DL 0 0
CORDIANT COMMUNICATIONS GROUP LIMITED 0 0
CAKE GROUP LIMITED 0 0
XPOSURE VISUAL COMMUNICATIONS LTD 0 0
ARELIABLECREATIVE LIMITED 0 0
MILLERPERRY LTD 0 0
SYNEOS HEALTH COMMERCIAL EUROPE LIMITED 0 0
MEDIASQUARE LIMITED 0 0
HORTON GROUP INTERNATIONAL LIMITED 0 0
STUDIO V CREATIVE LIMITED 30 NEWLANDS AVE, RADLETT, ENGLAND, WD7 8EL 0 0
PROWORX MEDIA LIMITED 0 0
NORTHERN DESIGN COLLECTIVE LIMITED 0 0
MERGERS TECHNOLOGY PRODUCTIONS LTD 0 0
RAPIER COMMUNICATIONS LIMITED 0 0
DOUGHTY, ROBERTS, DOUGHTY DESIGN LIMITED 0 0
GIBSON ELLIOTT LTD. 0 0
PEN & THINK LIMITED 0 0
PENDRAGON ONE LTD. 0 0
STUDIOEDP LTD 104 WALCOTT STREET, BATH, UNITED KINGDOM, BA1 5BG 0 0
HERON MARKETING SERVICES LTD 0 0
STUDIO C DESIGN LTD OAKWOOD HOUSE GUILDFORD ROAD, BUCKS GREEN, HORSHAM, WEST SUSSEX, RH12 3JJ 0 0
ONTOP MEDIA LTD 0 0
CHANNEL ENGAGE LIMITED 0 0
GIRARDOT PARTNERS LIMITED 0 0
STUDIO FORTY SIX LTD 16 LOVELACE AVENUE, SOLIHULL, ENGLAND, B91 3JR 0 0
OPTIMISE MEDIA (UK) LIMITED 0 0
ZUNA BD LTD 0 0
LORENTIUM LTD 0 0
OAKMONT VENTURE LIMITED 0 0
HAVAS PEOPLE LIMITED 0 0
STUDIO LIMITED 32 MARGARET PLACE, ABERDEEN, SCOTLAND, AB10 7GB 0 0
SUMZA DESIGN LIMITED 4 JONES WAY, ROCHDALE, ENGLAND, OL16 4FX 0 0
MEDIAPLANET LIMITED 0 0
OUTRIGHT COMMUNICATION LIMITED 0 0
QUICKTHINK DIGITAL LIMITED 0 0
THE STUDY NETWORK (GB) LIMITED 0 0
STUDIO OF ART AND COMMERCE LTD 6TH FLOOR CHARLOTTE BUILDING, 17 GRESSE STREET, LONDON, UNITED KINGDOM, W1T 1QL 0 0
SIREN MEDIABIZ LIMITED 0 0
SUNGATE MARKETING LTD 60 PRINCE OF WALES DRIVE, LONDON, ENGLAND, SW11 4SF 0 0
BARRACLOUGH EDWARDS CHAMBERLAIN LIMITED 0 0
WORK CLUB LIMITED 0 0
YOYOPROMO LIMITED 0 0
SCP ACQUISITION MIDCO LIMITED 0 0
BRIDGE BRAND CONSULTANCY LIMITED 0 0
OPENMINDWORLD LIMITED 0 0
STUDENT PROMOTION LIMITED 118 HENWICK ROAD, WORCESTER, WORCESTERSHIRE, UNITED KINGDOM, WR2 5PB 0 0
DENTSU MCGARRYBOWEN UK LTD. 0 0
NEOPETRO COMPANY (U.K.) LIMITED 0 0
FAMILY ADVERTISING LIMITED 0 0
HOLIDAY RENTAL CENTRE LIMITED 0 0
ALL ABOUT MEDIA LIMITED 0 0
SOCIALBIRD LIMITED 0 0
WE LIKE TRAVEL LTD 0 0
MEDIATOR COMMUNICATIONS LTD 0 0
STUDIO BICEP LIMITED FIRST FLOOR, TELECOM HOUSE, 125-135 PRESTON ROAD, BRIGHTON, EAST SUSSEX, UNITED KINGDOM, BN1 6AF 0 0
HIVE MEDIA LIMITED 0 0
CHAMELEON MUSIC MARKETING LTD 0 0
FBH INCITE LIMITED 0 0
FRIENDAY LTD. 0 0
NEW DIGITAL MARKETING LIMITED 0 0
STUDIO CONSULTING LIMITED MILLBANK TOWER MILLBANK TOWER, 21-24 MILLBANK, LONDON, ENGLAND, SW1P 4QP 0 0
SULAN LTD 6 CHUDLEIGH, HIGHVIEW ROAD, SIDCUP, GREATER LONDON, ENGLAND, DA14 4EZ 0 0
SUGAR BULLET MARKETING LIMITED 7 UNITY STREET, BRISTOL, BS1 5HH 0 0
HAVAS WORLDWIDE LONDON LIMITED 0 0
CLEAR CHANNEL BANNERS LIMITED 0 0
PROTECTED PARKING LIMITED 0 0
IDEAL MEDIA EUROPE LTD 0 0
DIGITAL MEDIA INVESTMENT GROUP LTD 0 0
DIALOGUE MARKETING PARTNERSHIP LIMITED 0 0
SUMMIT SALES PROMOTION LIMITED ACRE HOUSE, 11-15 WILLIAM ROAD, LONDON, NW1 3ER 0 0
WOOD BRIGDALE, NISBET & ROBINSON LIMITED 0 0
THINKMEDIA COMMUNICATION LIMITED 0 0
TARGET MEDIA LIMITED 0 0
BOO INTERNATIONAL LIMITED 0 0
OGILVY ADVERTISING LTD 0 0
FORTIFIED CONSULTING LTD 0 0
NET LOVE LTD 0 0
ENTERPRISE IG UK LIMITED 0 0
SUN STATE SERVICE UK PTE LTD ADAMSON HOUSE WILMSLOW ROAD, TOWERS BUSINESS PARK, MANCHESTER, GREATER MANCHESTER, ENGLAND, M20 2YY 0 0
KACHINA LIMITED 0 0
M&C SAATCHI PLC 0 0
ARCLIGHT MARKETING AND MEDIA LIMITED 0 0
VERTICURL MARKETING UK LIMITED 0 0
TSWG LIMITED 0 0
SUBSTANCE ADM LTD 20-22 WENLOCK ROAD, LONDON, ENGLAND, N1 7GU 0 0
STYLOVI LTD 63/66 HATTON GARDEN, FIFTH FLOOR, SUITE 23, LONDON, UNITED KINGDOM, EC1N 8LE 0 0
BARTLE BOGLE HEGARTY USA LIMITED 0 0
RECOMMENDED HOTELS LIMITED 0 0
THE FINEST URBAN COFFEE KIOSKS LTD 0 0
BLYDE DEVELOPMENTS LIMITED 0 0
VERTICAL INFORMATION UK LIMITED 0 0
CHINESE GLOBAL NETWORK LIMITED 0 0
EDCOMS LIMITED 0 0
SUCCESSION CONSULTING LTD AZURE BUSINESS CENTRE, NEWBURN, NEWCASTLE UPON TYNE, ENGLAND, NE15 8LN 0 0
CHASE MARKETING SOLUTIONS LIMITED 0 0
LESLEY CLARK COMMUNICATIONS LIMITED 0 0
UPPER REACH LIMITED 0 0
SUSTAINTECH AFRICA LTD 0 0
VOICE MAGAZINES LIMITED 0 0
INEVIDENCE LIMITED 0 0
SUGARHILL INC LIMITED THE OLD COTTAGE, REIGATE ROAD, BUCKLAND, SURREY, ENGLAND, RH3 7BG 0 0
STUDIO360 CREATIVE LTD 5 HAWKSHAW CLOSE, OAKENGATES, TELFORD, SHROPSHIRE, TF2 6NH 0 0
THE HEALTH HIVE LIMITED 0 0
TWOGETHER CREATIVE LIMITED 0 0
FINDCHILDCARE.NET LIMITED 0 0
MOTORK LTD 0 0
STUDYZINC LIMITED 85 GREAT PORTLAND STREET, LONDON, ENGLAND, W1W 7LT 0 0
THINK BDW LIMITED 0 0
ARMCOM COMMUNICATIONS LIMITED 0 0
CIL 2012 LIMITED 0 0
MELLOR MEDIA LIMITED 0 0
29 RED LIMITED 0 0
LMC DESIGN LIMITED 0 0
HADDOCK MEDIA INTERNATIONAL LIMITED 0 0
MAYSTREET LTD 0 0
DRUM OMG LIMITED 0 0
STYLE MACHINE ILLUSTRATION LIMITED 27 STAPLEHURST GARDENS, CLIFTONVILLE, MARGATE, KENT, UNITED KINGDOM, CT9 3JB 0 0
SELECT FIRST LTD. 0 0
UNRULY GROUP LIMITED 0 0
ROBOT FOOD LTD 0 0
RACE DISTANCE LIMITED 0 0
HEARTS & SCIENCE LIMITED 0 0
TWW GROUP LIMITED 0 0
SUBLIME AGENCY LIMITED SUITE 2 2ND FLOOR PHOENIX HOUSE, 32 WEST STREET, BRIGHTON, BN1 2RT 0 0
TRAVELCLASSIFIED.CO.UK LIMITED 0 0
STUDIO MRC LTD FLAT 1, 42 DENTON ROAD, LONDON, ENGLAND, N8 9NS 0 0
PAN ADVERTISING LIMITED 0 0
IMC2 LTD 0 0
GRAVITY ROAD LIMITED 0 0
ROMMATIC LIMITED 0 0
KWT GLOBAL LTD. 0 0
WINDSOR JENNINGS LIMITED 0 0
STUDIO REN LTD 1 BITTESWELL ROAD, LUTTERWORTH, LEICESTERSHIRE, UNITED KINGDOM, LE17 4EL 0 0
MCCANN-ERICKSON CENTRAL LIMITED 0 0
MANDO CORPORATION LIMITED 0 0
SCHOLZ & FRIENDS LONDON LIMITED 0 0
ARROW PUBLISHING LIMITED 0 0
FLYER GROUP MEDIA LTD. 0 0
TCWAN LIMITED 0 0
CODE AND THEORY LONDON LIMITED 0 0
LITTLE YELLOW BOOKS LTD 0 0
NATIONAL ACCIDENT HELPLINE LIMITED 0 0
STUDIO VARSOVIE LIMITED 56 PADDINGTON STREET, LONDON, ENGLAND, W1U 4HY 0 0
TULLO MARSHALL WARREN LIMITED 0 0
MATRIX MARKETING & MEDIA SOLUTIONS LTD. 0 0
THE BIO AGENCY LTD 0 0
CARAT EUROPE LTD 0 0
ECLIPSE DIGITAL LTD 0 0
BECREATIVE GROUP LTD 0 0
MAHER B ASSOCIATES LIMITED 0 0
STUDIO WITTERSTEIN LTD 245 SOUTH PARK ROAD, LONDON, UNITED KINGDOM, SW19 8RY 0 0
ZUMM LIMITED 0 0
GO ANALYSE LIMITED 0 0
ZEUS ADVERTISING LTD 0 0
MYBX LTD 0 0
STUDIOJOB LTD LOWOOD MAINS, LOWOOD, MELROSE, SCOTTISH BORDERS, UNITED KINGDOM, TD6 9BJ 0 0
SPORTS COMMUNICATION MARKETING (UK) LIMITED 0 0
STUDIO CERTAIN LIMITED MBA HOUSE, GARMAN ROAD, LONDON, ENGLAND, N17 0HW 0 0
PEPPIS DESIGNWORKS LTD 0 0
DEBBIE DOES IDEAS & ART DIRECTION LIMITED 0 0
RED HOT 'N' COOL LTD 0 0
GLISPA GLOBAL GROUP LIMITED 0 0
CHEIL EUROPE LIMITED 0 0
BYRNE & COMPANY MEDIA LIMITED 0 0
STUDIO FREE LIMITED 152-160 CITY ROAD, LONDON, ENGLAND, EC1V 2NX 0 0
POSITIVE MORTGAGE SOLUTIONS LTD 0 0
RANIERI PUBLIC RELATIONS LIMITED 0 0
GROUP POSITIVE LIMITED 0 0
BM RESORTS LIMITED 0 0
APROFITA LIMITED 0 0
FIRST RADIO SALES LIMITED 0 0
STUDIO LOVELOCK LTD 26 COTTINGHAM ROAD, 26 COTTINGHAM ROAD, LONDON, SE20 7PT 0 0
SUN 10 DIGITAL SERVICES LTD 103A CAMBRIDGE ROAD, HARDWICK, CAMBRIDGE, ENGLAND, CB23 7QG 0 0
THOTH UK LIMITED 0 0
OLIVER MARKETING LIMITED 0 0
HOTCHKISS MARKETING SERVICES LTD 0 0
BRANDIKOOT LIMITED 0 0
SCP ACQUISITION BIDCO LIMITED 0 0
ADVERTISING VENTURES LIMITED 0 0
METEORITE MARKETING LIMITED 0 0
STUDENT WOM LTD 71-75 SHELTON STREET, COVENT GARDEN, LONDON, UNITED KINGDOM, WC2H 9JQ 0 0
LANDOR ASSOCIATES EUROPE LTD 0 0
TBWA\WORLDHEALTH LONDON LIMITED 0 0
SWORDFISH ADVERTISING LIMITED 0 0
HOLIDAYRENTALCENTRE.COM LIMITED 0 0
NEXT FIFTEEN HOLDCO1 LIMITED 0 0
PHOTOVIA EUROPE LTD. 0 0
AUSTIN MARKETING ASSOCIATES LTD 0 0
STUDIO BLUE CREATIVE LIMITED 102 HOWDALE ROAD, HULL, EAST YORKSHIRE, UNITED KINGDOM, HU8 9UU 0 0
HIVE OUTDOOR MEDIA LIMITED 0 0
WINWALES LIMITED 0 0
FIELD MANAGEMENT EUROPE LIMITED 0 0
DUGOUT C HOLDINGS LIMITED 0 0
STUDIO CT LTD 35C MILDMAY PARK, LONDON, ENGLAND, N1 4NA 0 0
SULIS DIGITAL LTD 1 OFFICE 1 BELLOTTS HOUSE, BATH, SOMERSET, UNITED KINGDOM, BA2 3RT 0 0
SUGAR CREATIVE STUDIO LIMITED S4C MEDIA CENTRE TY GLAS AVE., LLANISHEN, CARDIFF, WALES, CF14 5DU 0 0
RAW MEDIA LIMITED 0 0
WHEREDOISTAY.COM LIMITED 0 0
BIGG LIMITED 0 0
RAWLAW 11 LTD 0 0
JAMBY APPAREL LIMITED 0 0
KBW LIMITED 0 0
SUMMITNOVA LTD 71-75 SHELTON STREET, LONDON, GREATER LONDON, UNITED KINGDOM, WC2H 9JQ 0 0
THE BRIDGE (ADVERTISING) LIMITED 0 0
MOORGATE COMMUNICATIONS LTD. 0 0
H & A GRAPHIC DESIGN LIMITED 0 0
FRESH VIEW SALES LIMITED 0 0
G&P ADVERTISING LIMITED 0 0
MONETE LTD 0 0
SOVEREIGN INSIGNIA LIMITED 0 0
SUN3CORP LIMITED 71-75 SHELTON STREET, COVENT GARDEN, LONDON, UNITED KINGDOM, WC2H 9JQ 0 0
CHARLES LONGDON INTERNATIONAL LTD 0 0
MAMMAL LTD 0 0
YOU & MR JONES LIMITED 0 0
SUBSTER UK LTD 41 DEVONSHIRE STREET, GROUND FLOOR, LONDON, ENGLAND, W1G 7AJ 0 0
SU MODELS LTD 120 SPOUTHOUSE LANE, BIRMINGHAM, ENGLAND, B43 5QA 0 0
THE ZOO MARKETING & ADVERTISING LIMITED 0 0
DIGITAL ADVERTISING SOLUTIONS NI LIMITED 0 0
SPORT GROUP WORLDWIDE LIMITED 0 0
FIDUCIA DLT LIMITED 0 0
LOCAL MAP COMPANY LIMITED 0 0
SUCH AGENCY LTD REGENCY HOUSE, 33 WOOD STREET, BARNET, HERTFORDSHIRE, UNITED KINGDOM, EN5 4BE 0 0
THE FRENCH PROPERTY LIST LIMITED 0 0
IDEONYX LTD 0 0
YEDI77 LTD 0 0
THE INSIDE WRITE CO. LIMITED 0 0
SUGARVINE LIMITED THE OLD TANNERY, EASTGATE, ACCRINGTON, LANCASHIRE, BB5 6PW 0 0
GENERIC BUSINESS SERVICES LTD 0 0
STUDIO41DE LTD 20-22 WENLOCK ROAD, LONDON, ENGLAND, N1 7GU 0 0
AEARYL LIMITED 0 0
T & G INVESTMENT LTD 0 0
HERMES AGENT LIMITED 0 0
IAA MARKETING SERVICES LTD 0 0
OMOBONO LIMITED 0 0
STUFF ADVERTISING LIMITED ATELIER B1 THE OLD BREWERY LODWAY, PILL, BRISTOL, BS20 0DH 0 0
MK MARKETING SUPPORT LIMITED 0 0
ENQUOTE MARKETING LTD 0 0
RUPERT LEWIN RACING LIMITED 0 0
AVANTGARDE MARKETING LIMITED 0 0
ERVIN PROMOTIONS LIMITED 0 0
VISTA REPORTS MEDIA LIMITED 0 0
PARCELMAIL LIMITED 0 0
NFRN COMMERCIAL LTD 0 0
STYLE NOW MEDIA LIMITED 12 ASH GROVE, NORTHALLERTON, NORTH YORKSHIRE, DL6 1RQ 0 0
PROMO BIKES LIMITED 0 0
THINKING JUICE LIMITED 0 0
MEDIACO OUTDOOR LIMITED 0 0
DMT PHARM LTD. 0 0
SPOT-ONUK LTD 0 0
MERIDIAN OUTDOOR ADVERTISING LIMITED 0 0
SUBLIME CREATIVE DESIGN LTD MACKENZIE GOLDBERG JOHNSON LIMITED SCOPE HOUSE, WESTON ROAD, CREWE, CW1 6DD 0 0
TRAVELCLASSIFIED.COM LIMITED 0 0
STUDIO MUMO LTD 17 GREEN LANES, LONDON, ENGLAND, N16 9BS 0 0
ARTFUL LODGER LIMITED 0 0
CUT COMMUNICATIONS LTD 0 0
NOW ADVERTISING LIMITED 0 0
KYU INVESTMENT UK LIMITED 0 0
G P A ADVERTISING AND MARKETING LIMITED 0 0
STUDIO RIEN LTD 16, CHERITON HOUSE, PEMBURY ROAD, LONDON, UNITED KINGDOM, E5 8LW 0 0
COMMERCIAL 2016 LIMITED 0 0
STUDIO NASH LTD LITTLE GABLES HAYES LANE, WOODMANCOTE, CIRENCESTER, GLOUCESTERSHIRE, ENGLAND, GL7 7EE 0 0
MEDIAFLEET LIMITED 0 0
KIRKWALL INVESTMENT LTD. 0 0
CRE8IVE GLASGOW LIMITED 0 0
LANGLAND ADVERTISING DESIGN AND MARKETING LIMITED 0 0
MASON ZIMBLER LIMITED 0 0
STUDIO SAKE LTD 3 SPINNEY BANK, WING, LEIGHTON BUZZARD, BUCKINGHAMSHIRE, UNITED KINGDOM, LU7 0UB 0 0
THE LEADING HOTELS OF THE WORLD LIMITED 0 0
THORNTON MEDIA LIMITED 0 0
SUNFISH DIGITAL MEDIA LIMITED 0 0
ILLUMINATE AGENCY LTD 0 0
JUNK DIGITAL LIMITED 0 0
PRIMEADS INTERNATIONAL LIMITED 0 0
STUDIO X (GLW) LTD 30D GREAT SUTTON STREET, LONDON, ENGLAND, EC1V 0DU 0 0
LIVITY LIMITED 0 0
I LOVE MONDAYS LTD 0 0
HELIA PRODUCTION LTD 0 0
MTL MEDIA LIMITED 0 0
STUDIOMADE LIMITED UNIT 6 23-25 ST SAVIOURS WHARF, MILL STREET, LONDON, ENGLAND, SE1 2BE 0 0
K2 ADVERTISING LIMITED 0 0
STUDIO CHANGE LTD GROUND FLOOR, 13 CABLE COURT PITTMAN WAY, FULWOOD, PRESTON, ENGLAND, PR2 9YW 0 0
BLUE GINGER (UK) LIMITED 0 0
THE HUP AGENCY LIMITED 0 0
AAF(UK) LTD 0 0
CARRMENIO CO. LTD 0 0
A10 NETWORKS LIMITED 0 0
WFCA INTEGRATED LIMITED 0 0
STUDIO GLU LTD 593A READING ROAD, WINNERSH, WOKINGHAM, ENGLAND, RG41 5HQ 0 0
MARKETING CONCEPTS LIMITED 0 0
CZA CAPITAL LTD 0 0
CLIPBASE LIMITED 0 0
RC NEWS LIMITED 0 0
CHIAL LIMITED 0 0
PILLORY BARN DESIGN LIMITED 0 0
STUDIO M NATLEY LTD. 32 HEATHPOOL COURT 32 HEATHPOOL COURT, BRADY ST, LONDON, LONDON, UNITED KINGDOM, E1 5DN 0 0
DM EUROPE LIMITED 0 0
IMO AGENCY LIMITED 0 0
MARKICK LTD 0 0
STUDIO OF FOOLS LIMITED WEWORK, 1 MARK SQUARE, LONDON, ENGLAND, EC2A 4EG 0 0
SUNLO LIMITED 29A SUNNINGDALE AVENUE, LEIGH-ON-SEA, ENGLAND, SS9 1JY 0 0
SUN CITY MEDIA GROUP LTD C/O THE ACCOUNTANCY PARTNERSHIP, TWELVE QUAYS HOUSE, EGERTON WHARF, WIRRAL, UNITED KINGDOM, CH41 1LD 0 0
COMMUNITY DEVELOPMENT SERVICES LIMITED 0 0
STREET TRIBES LIMITED 0 0
KLAUBER BUSINESS LTD. 0 0
LINNELL DESIGN LTD 0 0
RESOLUTE DIGITAL LIMITED 0 0
BEING LONDON LIMITED 0 0
STUDENTFM MARKETING LIMITED 5 - 7 MILL FOLD WAY, RIPPONDEN, WEST YORKSHIRE, UNITED KINGDOM, HX6 4DJ 0 0
PORTLAND OUTDOOR ADVERTISING LIMITED 0 0
COGORA GROUP LTD , , 140 LONDON WALL, 4TH FLOOR, LONDON, , , EC2Y 5DN 0 0
BEST-STARS-DESIGN LIMITED 0 0
SUPPORT AMBITION LTD 0 0
PAN COMMUNICATIONS LIMITED 0 0
STUDIO BLUEBIRD LTD FLAT 3 PRIORY COURT, 47 SHEPHERDS HILL, LONDON, ENGLAND, N6 5QN 0 0
TEAMPROP COMPANY LIMITED 0 0
PINPOINTER LIMITED 0 0
QPLUS MARKETING LIMITED 0 0
ZEN EXPERIENTIAL LIMITED 0 0
VORTEC MANAGEMENT LIMITED 0 0
STUDIO EAGER LIMITED 51 CRANSTON COURT, 56 BLOEMFONTEIN ROAD, LONDON, ENGLAND, W12 7FF 0 0
SULON LTD >OFFICE 8, BUSINESS CENTRE WEST, AVENUE ONE, LETCHWORTH GARDEN CITY, UNITED KINGDOM, SG6 2HB 0 0
SUGAR MADDEN LTD ASM HOUSE, 103A KEYMER ROAD, HASSOCKS, WEST SUSSEX, UNITED KINGDOM, BN6 8QL 0 0
APRIL SIX (MOBILITY) LIMITED 0 0
THE SOWERBY GROUP LIMITED 0 0
KINDNESS LIMITED 0 0
DRAW CONNECT LIMITED 0 0
KINESSO LIMITED 0 0
HBS INTERNATIONAL LIMITED 0 0
SUMMON DIGITAL LTD. 2ND FLOOR, 39 LUDGATE HILL, LONDON, ENGLAND, EC4M 7JN 0 0
YOUR HOUSE INFO LIMITED 0 0
PIXELAPE LIMITED 0 0
STADIUMSQUARES LTD , , RESEARCH HOUSE NORWICH ROAD, EASTGATE, NORWICH, NORFOLK, , NR10 4HA 0 0
DEWYNTERS LIMITED 0 0
EMPLOYEEREWARDS.COM LIMITED 0 0
DRAGON MARKETING LTD. 0 0
OUTDOOR FOCUS LIMITED 0 0
OGILVY & MATHER EUROPE LIMITED 0 0
TRUE DIGITAL LIMITED 0 0
RED EDGE CREATIVE LTD 0 0
PRIVATE HIRE IN CRISIS LIMITED 0 0
SOHCIAL LTD , , 46 FIELDHOUSE ROAD, , WOLVERHAMPTON, , ENGLAND, WV4 6ST 0 0
SUBTERRANEAN LIGHT LIMITED 1B CANTS LANE, BURGESS HILL, ENGLAND, RH15 0LQ 0 0
PORTFOLIO CREATIVE AND PRODUCTION LIMITED 0 0
CHURCHYARD LIMITED 0 0
CHEEKY CHOPS LTD 0 0
THE BLACK EYE PROJECT LIMITED 0 0
3POINT81 LTD 0 0
THE HUNT CREATIVE LIMITED 0 0
INTEREUROPE COMMUNICATIONS LIMITED 0 0
SUCH CREATIVE LTD FLAT 141 BOOTH COURT, THURSTON ROAD, LONDON, UNITED KINGDOM, SE13 7JG 0 0
GROW WITH SEO LTD 0 0
CABSCREENS TAXI ADVERTISING LIMITED 0 0
LIGHTBRIGADE MEDIA CORPORATION LIMITED 0 0
MEDIAMED LIMITED 0 0
SAJCOM MEDIA GROUP LIMITED 0 0
FAXPRESS LIMITED 0 0
SUGIMCO LIMITED 79 GATEWAY APARTMENTS 11 STATION APPROACH, HOE STREET, LONDON, ENGLAND, E17 9SL 0 0
RED DOOR COMMUNICATIONS GROUP LIMITED 0 0
STUDIOBLAYCO LTD 21 OLIVE ROAD, 21 OLIVE ROAD, LANCASTER, LANCASHIRE, ENGLAND, LA1 2BZ 0 0
THE ENGINE GROUP LIMITED 0 0
ENWO LTD 0 0
ZANDER CREATIVE CONSULTANTS LIMITED 0 0
PROFIT ROCKET MARKETING LIMITED 0 0
ONCE UPON A TIME LONDON LTD 0 0
STUMBLE LTD 99 WALSALL ROAD, WALSALL, WEST MIDLANDS, UNITED KINGDOM, WS9 0AX 0 0
WINGBLADE ADVERTISING LTD 0 0
BRAVE MARKETING LIMITED 0 0
SIGNATURE OUTDOOR LIMITED 0 0
ENTHUSE PR LIMITED 0 0
JUICE MARKETING COMMUNICATIONS LIMITED 0 0
JCDECAUX SMALL CELLS LIMITED 0 0
MEDICELL LTD 0 0
RSCR DIRECT MARKETING LIMITED 0 0
STYLE QUARTIERS LTD SUITE 41, CHESSINGTON BUSINESS CENTRE, 37 COX LANE, CHESSINGTON, UNITED KINGDOM, KT9 1SD 0 0
UK MAILING LIMITED 0 0
QUIRK EMARKETING LTD 0 0
MARKET4CARS LTD 0 0
VERTICAL INTELLIGENCE LIMITED 0 0
LLOYD NORTHOVER BRAND COMMUNICATIONS LIMITED 0 0
SUBLIME WINE LIMITED UNIT 15 BRICKFIELD LANE, CHANDLER'S FORD, EASTLEIGH, UNITED KINGDOM, SO53 4DR 0 0
IGNITE MUSIC & ENTERTAINMENT LIMITED 0 0
GBCS P R LIMITED 0 0
MARK S G ENTERPRISES LIMITED 0 0
ASB DIGITAL LIMITED 0 0
NEIGHBOURLY LIMITED 0 0
SUBLIMINAL MARKETING LIMITED 5 ELSTREE GATE, ELSTREE WAY, BOREHAMWOOD, HERTFORDSHIRE, WD6 1JD 0 0
MOON FROG LIMITED 0 0
STUDIO NEO LTD ASH TREE HOUSE OLD ROAD, SCALDWELL, NORTHAMPTON, ENGLAND, NN6 9JZ 0 0
REX ADVERTISING LIMITED 0 0
SEPTIMANIE-EXPORT LONDON LTD 0 0
4TH WALL MEDIA LIMITED 0 0
SERVICEPLAN GROUP UK LTD. 0 0
LEAFLET CO LIMITED(THE) 0 0
MOTHER FAMILY LIMITED 0 0
STUDIO SANKOFA LTD C/O SEDULO 505 ALBERT HOUSE, 256 - 260 OLD STREET, LONDON, ENGLAND, EC1V 9DD 0 0
ROWAN MARKETING LIMITED 0 0
ONCE UPON A TIME MARKETING LIMITED 0 0
THORNFALCON LIMITED 0 0
OUTDOOR ADVERTISING SERVICES LTD 0 0
TOTALLY CONTENTED LIMITED 0 0
NO ORDINARY WEDDING AND EVENT COMPANY LIMITED 0 0
FIRST MARCOMMS GROUP LIMITED 0 0
THE PIPER AGENCY LIMITED 0 0
STUDIO X CREATIVE LTD 1 ST. IVES ROAD, HOUGHTON, HUNTINGDON, UNITED KINGDOM, PE28 2BJ 0 0
33.33 LTD 0 0
VERVE MARKETING LONDON LTD 0 0
AMS COMMUNICATIONS GROUP LTD 0 0
THE PROPAGANDA AGENCY LIMITED 0 0
STUDIO GOING LTD KEMP HOUSE, 160 CITY ROAD, LONDON, UNITED KINGDOM, EC1V 2NX 0 0
HARTLEY-STONE LIMITED 0 0
COW CREATIVE LIMITED 0 0
RATHER INVENTIVE LIMITED 0 0
BUILD HOLLYWOOD LTD 0 0
STUDIO MBO LIMITED 84 IRSHA STREET, APPLEDORE, BIDEFORD, DEVON, UNITED KINGDOM, EX39 1RY 0 0
RUSSIA DIRECT (UK) LIMITED 0 0
DONER LIMITED 0 0
NEW ECLIPSE LIMITED 0 0
THELEADAGENCY.COM LIMITED 0 0
STUDIO OF SIR LTD 29 CRAWFORD COMPTON CLOSE, HORNCHURCH, ENGLAND, RM12 6UA 0 0
SUNMOON LONDON LTD UNIT 6,, 80A ASHFIELD STREET, LONDON, UNITED KINGDOM, E1 2BJ 0 0
SUN SPROUT LTD 2 HOPGRASS FARM COTTAGE, BATH ROAD, HUNGERFORD, ENGLAND, RG17 0SJ 0 0
OUTDOOR SYSTEMS LIMITED 0 0
COMMERCIAL BREAK LIMITED 0 0
FRESTON SERVICES LIMITED 0 0
PROPERADS LTD 0 0
JORI WHITE PUBLIC RELATIONS LIMITED 0 0
STUDIO 13 GROUP LTD 68 ARMADA WAY, LITTLEHAMPTON, ENGLAND, BN17 6QY 0 0
LEO BURNETT EUROPE/MIDDLE EAST/AFRICA LIMITED 0 0
PROMOTIONAL STUDIOS LIMITED 0 0
ONE1000 LIMITED 0 0
20VISIONMEDIA LIMITED 0 0
FIELD MARKETING SOLUTIONS LIMITED 0 0
RAAM CYCLE SPORT LIMITED 0 0
VERSUTUS LIMITED 0 0
STUDIO BND LTD OAKS COTTAGE HERSHAM FARM BUSINESS PARK, LONGCROSS ROAD, CHERTSEY, SURREY, UNITED KINGDOM, KT16 0DN 0 0
POWER MARKET LIMITED 0 0
MALCOLM PLANNER ASSOCIATES LIMITED 0 0
SELECTIVE MEDIA LIMITED 0 0
ELC WELLNESS LTD 0 0
COFFEE JOBS LIMITED 0 0
STUDIO ELSEWHERE LTD F25 WATERFRONT STUDIOS, 1 DOCK ROAD, LONDON, UNITED KINGDOM, E16 1AH 0 0
SUM OF ALL PARTS LIMITED C/O HARLAND ACCOUNTANTS, 35 HIGH CROSS STREET, ST AUSTELL, CORNWALL, ENGLAND, PL25 4AN 0 0
SUGAR MARKETING LIMITED CHAPMAN HOUSE (SECOND FLOOR), CHAPMAN WAY, TUNBRIDGE WELLS, ENGLAND, TN2 3EF 0 0
CPD (EUROPE) LTD 0 0
CAPITAL LINK LIMITED 0 0
H D COMMUNICATIONS LIMITED 0 0
ENTHUSIASM LIMITED 0 0
JACOB ESAU LIMITED 0 0
COMMUNIC8 MEDIA LTD 0 0
OGILVYONE BUSINESS LIMITED 0 0
SUMNER & BAKER LTD KEMP HOUSE, 160 CITY ROAD, LONDON, UNITED KINGDOM, EC1V 2NX 0 0
TEAM LIFE GLOBAL LIMITED 0 0
NOTTS NETWORKING LIMITED 0 0
FIVE SQUARE PROPERTY MARKETING LIMITED 0 0
JCDECAUX AIRPORT UK LIMITED 0 0
DROGA5 UK LIMITED 0 0
JUPITER ADVERTISING LIMITED 0 0
SUNCHI DOES ART DIRECTION LTD. STUDIO 34, 46 MORRIS ROAD, LONDON, POPLAR, UNITED KINGDOM, E14 6NQ 0 0
TRANZFORMER LIMITED 0 0
VISUTECH DESIGN LIMITED 0 0
PRIVILEGE ADVERTISING ASSOCIATION LIMITED 0 0
G22 CONSULTANCY LTD 0 0
VWSE EUROPE LTD. 0 0
IMPRESSIONS MARKETING LTD , , 35 MERCURY DRIVE, , WOLVERHAMPTON, , UNITED KINGDOM, WV10 6DG 0 0
SUBTLE AUTOMOTIVE LTD 25 EXETER ROAD, CREDITON, ENGLAND, EX17 3BL 0 0
SUB-LINE CONSULTING LTD ELITE HOUSE, 155 MAIN ROAD, BIGGIN HILL, KENT, ENGLAND, TN16 3JP 0 0
SPORTFIVE UK LTD 0 0
RED SNAPPER MEDIA LIMITED 0 0
J.C.J.L. MARKETING SERVICES LIMITED 0 0
LEADSOR LIMITED 0 0
KNEW SALES UK LTD 0 0
LRIDGWAY LTD 0 0
EFFECTIVE SALES PERSONNEL LIMITED 0 0
SUE HIGGS LTD 20-22 WENLOCK ROAD, LONDON, ENGLAND, N1 7GU 0 0
STREAM DIGITAL ARTWORK SYSTEMS LIMITED 0 0
GREENREDEEM LTD 0 0
WESTROCK INDUSTRY LTD 0 0
PODIUM MARKETING LTD 0 0
VANTAGE GRAPHICS LIMITED 0 0
SUGIYAMA CONSULTING LIMITED 12 C PEABODY BUILDINGS, FARRINGDON LANE, LONDON, ENGLAND, EC1R 3BB 0 0
AVALON MEDIA SERVICES LIMITED 0 0
STUDIOCORKO LTD TOP FLOOR, THE OLD MILL FRYS YARD, BRIDGE STREET, GODALMING, SURREY, ENGLAND, GU7 1HP 0 0
CORE GROUP PRODUCTIONS LIMITED 0 0
SHAW INDEPENDENT PRODUCERS LIMITED 0 0
BLABBERMOUTH MARKETING LIMITED 0 0
PHOENIX15 MEDIA LIMITED 0 0
RADIO WORKS LIMITED 0 0
STUN CREATIVE LTD 14 MCKAY PLACE, EAST KILBRIDE, GLASGOW, SCOTLAND, G74 4SP 0 0
PRAGMA CONSULTING LIMITED 0 0
HARRISON PATTEN TROUGHTON LIMITED 0 0
TANGRAM MARKETING LIMITED 0 0
MIRRIAD LIMITED 0 0
RME TRADING LTD 0 0
TD ADS LTD 0 0
MEDIDARWIT LTD 0 0
ORBITDEAL LIMITED 0 0
STYLE UP SOCIAL ACADEMY LTD 45 ENSBURY AVENUE, BOURNEMOUTH, ENGLAND, BH10 4HF 0 0
KARMARAMA LIMITED 0 0
NEWFORM MARKETING LTD 0 0
ITS MY MONEY LIMITED 0 0
MAGISTERIUM CONSULTING LTD 0 0
HUTTON & PARTNERS LIMITED 0 0
STYLED SUSTAINABLE LTD OLD POLICE STATION, WHITBURN STREET, BRIDGNORTH, ENGLAND, WV16 4QP 0 0
THE UNION ADVERTISING AGENCY (LEEDS) LIMITED 0 0
LIVE DESIGNS LIMITED 0 0
OUTDOOR REVOLUTION AUSTRALIA LIMITED 0 0
BRANE CREATIVE LTD 0 0
RADIOVILLE LTD 0 0
SUBLIMINAL PRODUCTIONS LTD F25 WATERFRONT STUDIOS, 1 DOCK ROAD, LONDON, UNITED KINGDOM, E16 1AH 0 0
I2I MARKETING LIMITED 0 0
STUDIO OF ART AND COMMERCE LTD 6TH FLOOR CHARLOTTE BUILDING, 17 GRESSE STREET, LONDON, UNITED KINGDOM, W1T 1QL 0 0
ACCESS ADVERTISING & MARKETING LIMITED 0 0
STARKEY CREATIVE LIMITED 0 0
VIDAN LAWNES LIMITED 0 0
TOTAL MEDIAPLUS UK LTD 0 0
LEOVEGAS UK LIMITED 0 0
PUBLICOM INTERNATIONAL LIMITED 0 0
STUDIO SAPIENS LTD 32 HARESTONE HILL, CATERHAM, SURREY, ENGLAND, CR3 6DG 0 0
LYLE BAILIE INTERNATIONAL LIMITED 0 0
BRAY LEINO LIMITED 0 0
P AND R DESIGN LIMITED 0 0
MARKETING 101G LIMITED 0 0
I-CONTENT LTD. 0 0
OXLEYMARKETING LIMITED 0 0
THE BIG PICTURE (SCOTLAND) LIMITED 0 0
STUDIO XYZ LTD LOCATION HOUSE, VICTORIA HOUSE, 37 SOUTHAMPTON ROW, LONDON, ENGLAND, WC1B 4DA 0 0
PHILLIPS MEDIA CONSULTANCY LIMITED 0 0
ORANGE VISION SOLUTION LIMITED 0 0
BURDY LTD 0 0
TD MUNIMENTUM LTD 0 0
NEIGHBOUR SHANGHAI LIMITED 0 0
STUDIOMMH LTD FLAT 3 FLAT 3, 129 SHIRLAND ROAD, LONDON, UNITED KINGDOM, W9 2EP 0 0
STUDIO CONSULTING LIMITED MILLBANK TOWER MILLBANK TOWER, 21-24 MILLBANK, LONDON, ENGLAND, SW1P 4QP 0 0
THE MOST EXPENSIVE LIMITED 0 0
ADPOST MEDIA LIMITED 0 0
KARAMBA PROMOTION LTD 0 0
LIFFEX LIMITED 0 0
BYYD TECH LIMITED 0 0
ABC PROMOTIONAL GIFTS LIMITED 0 0
STUDIO GOMORI LTD 86-90 PAUL STREET, LONDON, ENGLAND, EC2A 4NE 0 0
SOCRATES COMMUNICATIONS LIMITED 0 0
THE CYCLE PEOPLE LIMITED 0 0
L AND E CONCEPTS LIMITED 0 0
CELLO SIGNAL LIMITED 0 0
STUDIO MELROSE LTD 6A ST ANDREWS COURT, WELLINGTON STREET, THAME, ENGLAND, OX9 3WT 0 0
ABACUS INTERACTIVE MEDIA LIMITED 0 0
CAT I LIMITED 0 0
M.I. MEDIA SERVICES LIMITED 0 0
MAPPERARTI LIMITED 0 0
PIE LONDON LIMITED 0 0
STUDIO ONE DIGITAL LTD 8 STERLING PLACE, WEYBRIDGE, SURREY, UNITED KINGDOM, KT13 9SQ 0 0
SUNNAH HAJJ AND UMRAH LTD 34B LEAGRAVE ROAD, LUTON, BEDFORDSHIRE, ENGLAND, LU4 8HZ 0 0
SUN STATE SERVICE UK PTE LTD ADAMSON HOUSE WILMSLOW ROAD, TOWERS BUSINESS PARK, MANCHESTER, GREATER MANCHESTER, ENGLAND, M20 2YY 0 0
SOURCE COMMUNICATIONS UK LIMITED 0 0
AGILITY MARKETING LTD 0 0
MONEYQUOTE LTD 0 0
ADAP.TV EUROPE LTD. 0 0
KIWICOM UK LTD 0 0
DOCTORS DIRECT PUBLISHING LIMITED 0 0
STUDIO 14 LTD 14 WILLS AVENUE, WEST BROMWICH, WEST MIDLANDS, B71 2QS 0 0
BARRETT, PETRIE, SUTCLIFFE LIMITED 0 0
WPP BRANDS (EUROPE) LIMITED 0 0
RADIUS MARKETING SOLUTIONS LIMITED 0 0
PURPLE AND ORANGE LTD. 0 0
ADDMIST LIMITED 0 0
GROSS TRADING LIMITED 0 0
ART AIM LIMITED 0 0
STUDIO BONITOS LIMITED 10 ANSDELL ROAD, LONDON, ENGLAND, SE15 2DS 0 0
DARE DIGITAL PROTECTOR LIMITED 0 0
R.O.EYE LIMITED 0 0
LAUNCH MEDIA AND PUBLIC RELATIONS LIMITED 0 0
OCEAN BIDCO LIMITED 0 0
STUDIO ELVIS VAN TOMATO LTD 137 COUNTY ROAD, WALTON, LIVERPOOL, ENGLAND, L4 3QF 0 0
SUMMER AFTERNOON LTD 24 GLOVE FACTORY STUDIOS, HOLT, WILTSHIRE, ENGLAND, BA14 6RL 0 0
SUGARHILL INC LIMITED THE OLD COTTAGE, REIGATE ROAD, BUCKLAND, SURREY, ENGLAND, RH3 7BG 0 0
ARMANDO TESTA INTERNATIONAL LIMITED 0 0
2 HALVES CONSULTING LIMITED 0 0
MOTORING.CO.UK LIMITED 0 0
MCCALLAN HOLDINGS LIMITED 0 0
INTERNATIONAL RESIDENCES LTD 0 0
MY TURN DIGITAL LTD 0 0
CODENALL LIMITED 0 0
SUMO GROUP HOLDINGS LIMITED 20 GREVILLE GARDENS, NEWCASTLE UPON TYNE, UNITED KINGDOM, NE13 9DN 0 0
MASS-OBSERVATION LIMITED 0 0
MJL ADVERTISING LIMITED 0 0
MB PROMOTION LTD. 0 0
CONTRARIAN GROUP LIMITED 0 0
THE ALLAM GROUP LIMITED 0 0
MOBILE MEDIA EXPERIENTIAL LIMITED 0 0
HA-LO MARKETING LIMITED 0 0
SUNCOURSE LTD 16 SABERTON CLOSE, REDBOURN, ST. ALBANS, ENGLAND, AL3 7DS 0 0
CADET TECHNOLOGIES LIMITED 0 0
NARRATIVE INTEGRATED COMMUNICATIONS LIMITED 0 0
PLAYMORE CONSULTING LIMITED 0 0
WATCHING THE WHEELS LIMITED 0 0
STUDENT DISCOUNT VOUCHERS LIMITED 317 GOLDEN HILL LANE, LEYLAND, LANCASHIRE, PR25 2YJ 0 0
SUBTLE ZEBRA LIMITED FLAT 5, 81, GEORGE STREET, LONDON, UNITED KINGDOM, W1U 8AQ 0 0
SUBLIME AGENCY LIMITED SUITE 2 2ND FLOOR PHOENIX HOUSE, 32 WEST STREET, BRIGHTON, BN1 2RT 0 0
T.T.M.A. LIMITED 0 0
TRAMP INVESTMENTS LTD 0 0
BRAINCHILD MARKETING LIMITED 0 0
CADUCEUS SOCIAL LTD 0 0
IMPERIEM LIMITED 0 0
M&C SAATCHI WORLDWIDE LIMITED 0 0
SUE STEVENS MEDIA LIMITED 7 QUEENS ROAD, LYNDHURST, ENGLAND, SO43 7BR 0 0
STORY UK LIMITED 0 0
DIGBY & CO COMMUNICATIONS LIMITED 0 0
I DO THE PICTURES LTD 0 0
MARSH HARE 0 0
MOMENTUM MARKETING LIMITED 0 0
SUITE CREATIVE LTD ORCHARD CORNER, FREIGHT LANE, CRANBROOK, UNITED KINGDOM, TN17 3PF 0 0
JANET REES CREATIVE SERVICES LIMITED 0 0
STUDIOEDP LTD 104 WALCOTT STREET, BATH, UNITED KINGDOM, BA1 5BG 0 0
TRULY MOVING ADVERTISING LIMITED 0 0
ADVENTIS HEALTH LIMITED 0 0
2MED LTD 0 0
L & E ASSOCIATES LIMITED 0 0
SIS DIGITAL MEDIA LIMITED 0 0
STUNN LTD 51 FREDERICK ROAD, EDGBASTON, BIRMINGHAM, ENGLAND, B15 1HN 0 0
THE GATE WORLDWIDE LIMITED 0 0
MALL MEDIA EU LIMITED 0 0
JWT ENTERTAINMENT PRODUCTIONS LIMITED 0 0
SITU STORES LIMITED 0 0
STUP MARKETING LTD 55 LEADHALL LANE, HARROGATE, UNITED KINGDOM, HG2 9NJ 0 0
POSTER SITES MANAGEMENT LIMITED 0 0
CHRIS RING CONSULTING LIMITED 0 0
EMPIRE MEDIA LIMITED 0 0
FULBECK FINANCIAL SERVICES LTD 0 0
PLANIT GAMING LIMITED 0 0
SEND ME A SAMPLE LIMITED 0 0
CONCOURSE INITIATIVES LIMITED 0 0
STYLENUT LIMITED OFFICE 4, 21, KNIGHTSBRIDGE, LONDON, ENGLAND, SW1X 7LY 0 0
THE COMMUNICATIONS CONCESSION LIMITED 0 0
JOBSINCHARITIES.CO.UK LIMITED 0 0
PARAMARQ LIMITED 0 0
PPR PUBLICITY LIMITED 0 0
BRAVO6 LTD 0 0
THISTLE ACCIDENT CLAIMS LTD 0 0
M B ADVERTISING AND MARKETING LTD 0 0
INTERNATIONAL CINEMA ADVERTISING (UK) LIMITED 0 0
STUDIO SCHON LIMITED 20 AMBERLEY ROAD, LONDON, ENGLAND, N13 4BJ 0 0
STAFFORD LONG & PARTNERS LIMITED 0 0
MEDIA ELEMENTS LIMITED 0 0
L.U.S.U. SERVICES COMPANY LIMITED 0 0
MADE MEDIA LTD 0 0
GREENTARGET LIMITED 0 0
BUSINESS WOMEN SCOTLAND LTD 0 0
BBD STUDIOWORKS LIMITED 0 0
CORPORATE DESIGN SOLUTIONS LIMITED 0 0
STUDIO-A92 LTD 20 CARNOUSTIE GARDENS, GLENROTHES, UNITED KINGDOM, KY6 2QB 0 0
ENHANCE MEDIA LIMITED 0 0
COGENT GROUP LIMITED 0 0
BECAUSE EXPERIENTIAL MARKETING LTD 0 0
HUMOR TRAIN LIMITED 0 0
STUDIOMONO LIMITED 12 BECK WAY, EAST ARDSLEY, WAKEFIELD, ENGLAND, WF3 2NA 0 0
STUDIO CT LTD 35C MILDMAY PARK, LONDON, ENGLAND, N1 4NA 0 0
UK THEATRES ONLINE LIMITED 0 0
MIDAS COLLECTIVE LTD 0 0
P&B E-BIZ LTD 0 0
WEEKLY PROPERTY SALES LIMITED 0 0
ADCITY UK LIMITED 0 0
CADRAN SERVICES LIMITED 0 0
STUDIO HABGOOD LTD HOLLY COTTAGE, LITTLE RISSINGTON, CHELTENHAM, ENGLAND, GL54 2ND 0 0
THE ENTERTAINMENT AGENCY LTD 0 0
VANILLAMONSOON LIMITED 0 0
CRIMSON PUBLISHING SERVICES LIMITED 0 0
PLUS44 HOLDINGS LTD 0 0
GOLTLINE LIMITED 0 0
STUDIO METANOIA LTD 86-90 PAUL STREET, LONDON, UNITED KINGDOM, EC2A 4NE 0 0
BRANDSPACE POSTER MEDIA LIMITED 0 0
GRAND FROMAGE CREATIVE LIMITED 0 0
MYBARRISTER LTD 0 0
STUDIO PHOENIX LIMITED THE WHITE HOUSE MILL ROAD, GORING, READING, ENGLAND, RG8 9DD 0 0
SUNNIVA GROUP LIMITED 69 MARY STREET, KIRKBY-IN-ASHFIELD, NOTTINGHAM, ENGLAND, NG17 7JS 0 0
SUN3CORP LIMITED 71-75 SHELTON STREET, COVENT GARDEN, LONDON, UNITED KINGDOM, WC2H 9JQ 0 0
CREATIVE MEDIA COMPANY (NI) LIMITED - THE 0 0
ISOBEL ADVERTISING LIMITED 0 0
STORM LANTERN LIMITED 0 0
MERCADO MCCANN LIMITED 0 0
HORSE LIFE LTD 0 0
AGRIBUSINESS COMMUNICATIONS LIMITED 0 0
STUDIO 2 LIMITED FLAT 18, FARSBY HOUSE, 1 MANWELL LANE, BARKING, ESSEX, ENGLAND, IG11 0WU 0 0
DIRECT MARKETING STRATEGIES LIMITED 0 0
ZEST ST LIMITED 0 0
STARFISH CREATIVE LIMITED 0 0
PROVENANCE COMMUNICATIONS LIMITED 0 0
CH CREATIVE LIMITED 0 0
RED SKY MARKETING LIMITED 0 0
EURO STRATEGIES LIMITED 0 0
STUDIO BRETT LTD FIRST FLOOR, TELECOM HOUSE, 125-135 PRESTON ROAD, BRIGHTON, EAST SUSSEX, UNITED KINGDOM, BN1 6AF 0 0
THE KEY 2 HORSES LTD 0 0
SEARCH.CO.UK LIMITED 0 0
OCEAN TOPCO LIMITED 0 0
STUDIO F30 LTD UNIT 20 FUSION AT MAGNA, MAGNA WAY, ROTHERHAM, ENGLAND, S60 1FE 0 0
SUMMER BREEZE AR LTD 71-75 SHELTON STREET, COVENT GARDEN, LONDON, UNITED KINGDOM, WC2H 9JQ 0 0
SUGARVINE LIMITED THE OLD TANNERY, EASTGATE, ACCRINGTON, LANCASHIRE, BB5 6PW 0 0
RED CACTUS ADVERTISING LIMITED 0 0
FOUR MARKETING & MEDIA LIMITED 0 0
INSKIN MEDIA LTD 0 0
PUB OCEAN LIMITED 0 0
M COM ONE LIMITED 0 0
N&S CAPITAL PARTNERS LIMITED 0 0
DIRECTOSIGN (UK) LIMITED 0 0
SUMO MARKETING GROUP LIMITED CLAVERING HOUSE, CLAVERING PLACE, NEWCASTLE UPON TYNE, ENGLAND, NE1 3NG 0 0
KINGSWAY MEDIA SERVICES LIMITED 0 0
COMPLETE BUSINESS GIFTS LIMITED 0 0
FULLSIX MEDIA LIMITED 0 0
SPIRE MEDIA LIMITED 0 0
BLACK DIAMOND AGENCY LIMITED 0 0
SUNDAY CREATIVE LTD 7 WARREN DRIVE NORTH, SURBITON, SURREY, UNITED KINGDOM, KT5 9LG 0 0
GLOBAL DESIGN AND PRINT LIMITED 0 0
URBAN (LONDON) LTD 0 0
DIGITAL CINEMA MEDIA LIMITED 0 0
BRANE MEDIA LIMITED 0 0
STUDENT INFO LTD UNIT 7 DANE JOHN WORKS, GORDON ROAD, CANTERBURY, KENT, UNITED KINGDOM, CT1 3PP 0 0
SUBVFX LTD 106 WORCESTER CRESCENT, LONDON, ENGLAND, NW7 4LL 0 0
SUBLIME CREATIVE DESIGN LTD MACKENZIE GOLDBERG JOHNSON LIMITED SCOPE HOUSE, WESTON ROAD, CREWE, CW1 6DD 0 0
OCTAGON MARKETING COMPANY LIMITED 0 0
NEWCASTLE MARKETING SERVICES LIMITED 0 0
EUROMEDIACONNECT LTD 0 0
MSBK LTD 0 0
LEAD THE DIRECTION LTD 0 0
FOX KALOMASKI CROSSING LIMITED 0 0
SUFFOCA LIMITED 3 ST ANDREWS PLACE, HITCHIN, HERTFORDSHIRE, UNITED KINGDOM, SG4 9UA 0 0
FG ENTERPRISES LTD 0 0
OOMPH AGENCY SERVICES LIMITED 0 0
HATCHED LIMITED 0 0
AROZIM LTD 0 0
SUITS WESTTY LTD STUDIO 210, 134-146 CURTAIN ROAD, LONDON, ENGLAND, EC2A 3AR 0 0
OVIDIA INVESTMENTS PLC 0 0
STUDIOJOB LTD LOWOOD MAINS, LOWOOD, MELROSE, SCOTTISH BORDERS, UNITED KINGDOM, TD6 9BJ 0 0
TOP EXECUTIVE PUBLICATIONS LTD 0 0
OPEN BOX MEDIA AND COMMUNICATIONS LIMITED 0 0
TENTHAVENUE MEDIA LIMITED 0 0
PETER CROSS LTD 0 0
STAY IN FILEY LTD 0 0
GREAT WEST WAY LIMITED 0 0
ORIGINATOR PROMOTIONAL MARKETING LIMITED 0 0
SUKISEO LIMITED 14 HALEGATE, WOOTTON, BEDFORD, ENGLAND, MK43 9LD 0 0
EVOLVING SYSTEMS LUMATA LIMITED 0 0
STUDIOMADE LIMITED UNIT 6 23-25 ST SAVIOURS WHARF, MILL STREET, LONDON, ENGLAND, SE1 2BE 0 0
LATERAL SYNCING LIMITED 0 0
POLLEN HEALTH LIMITED 0 0
UNICORN PPC LTD 0 0
SIZMEK TECHNOLOGIES LTD 0 0
STURSK & KAXIG (UN) LIMITED 78 YORK STREET, LONDON, ENGLAND, W1H 1DP 0 0
STORE GROUP HOLDINGS LIMITED 0 0
KTA DESIGN LIMITED 0 0
HONEY VISION LIMITED 0 0
NJOBS LTD 0 0
ANNE LONDON LIMITED 0 0
SOCIELLE LTD 0 0
WORKING PLANET LIMITED 0 0
STYLIER LTD 4385, 13344869: COMPANIES HOUSE DEFAULT ADDRESS, CARDIFF, CF14 8LH 0 0
CARD MEDIA INTERNATIONAL LIMITED 0 0
HDR VISUAL COMMUNICATION LIMITED 0 0
STORM OUTDOOR LIMITED 0 0
SUBNECTO LTD KEMP HOUSE, 160 CITY ROAD, LONDON, UNITED KINGDOM, EC1V 2NX 0 0
STUDIO OF FOOLS LIMITED WEWORK, 1 MARK SQUARE, LONDON, ENGLAND, EC2A 4EG 0 0
WAX COMMUNICATIONS LIMITED 0 0
APPLE OUTDOOR LIMITED 0 0
STREAMING TANK LIMITED 0 0
ADTOWER LIMITED 0 0
OLLIE & OLLIE MARKETING COMMUNICATIONS LIMITED 0 0
HOME MARKETING GROUP LTD 0 0
POLBAM LIMITED 0 0
STUDIO SOFT SPOT LTD 1-5 NEWINGTON CAUSEWAY, LONDON, ENGLAND, SE1 6ED 0 0
RAD DATA COMMUNICATIONS LIMITED 0 0
JOHN AYLING AND ASSOCIATES LIMITED 0 0
GMT+0 LIMITED 0 0
OTHER LIMITED 0 0
THE SUTTON YOUNG DESIGN PARTNERSHIP LIMITED 0 0
MEDIA ENGINEERS LIMITED 0 0
ADJECTIVE MEDIA LTD 0 0
CLICKS REVENUE LTD 0 0
THE PEA GREEN BOAT LIMITED 0 0
STUDIO-ONE VC LIMITED 10 BADENTOY CRESCENT, PORTLETHEN, ABERDEEN, SCOTLAND, AB12 4YD 0 0
MEXPERIENCE LIMITED 0 0
SERVICE 5000 LTD. 0 0
REORGANISE LIMITED 0 0
PAUL BELFORD LIMITED 0 0
STUDIOTREW LIMITED 87 SUNDERLAND ROAD, FORESTHILL, UNITED KINGDOM, SE23 2PS 0 0
STUDIO EAGER LIMITED 51 CRANSTON COURT, 56 BLOEMFONTEIN ROAD, LONDON, ENGLAND, W12 7FF 0 0
CRESTWAY MARKETING LIMITED 0 0
PANIC BUTTON LTD 0 0
ATTERCOPIA DIGITAL MARKETING LTD 0 0
KARMARAMA COMMS LIMITED 0 0
MLG SERVICES LTD. 0 0
CHERRY ADVERTISING LIMITED 0 0
THE NETWORK (THE OGILVY MEDIA COMPANY) LIMITED 0 0
STUDIO HAGGER LTD UNIT 13, CHANTRY PARK 2 COWLEY ROAD, NUFFIELD INDUSTRIAL ESTATE, POOLE, DORSET, ENGLAND, BH17 0UJ 0 0
MAVERICK ADVERTISING & DESIGN LIMITED 0 0
TRAVEL TV LIMITED 0 0
DOLPHIN GROUPS LTD 0 0
SIGN DESIGN (GB) LIMITED 0 0
PIETRZAK TRAINING GLOBAL LTD 0 0
OPTIMA PRODUCTION SERVICES LIMITED 0 0
STUDIO MILTOS BOTTIS LTD HALE HOUSE, UNIT 5, 296A GREEN LANES, PALMERS GREEN, LONDON, ENGLAND, N13 5TP 0 0
F M MEDIA LIMITED 0 0
GET ME MEDIA LTD 0 0
DOSTWO LIMITED 0 0
STYLEYARD LTD. 0 0
ABAKUS EUROPE LIMITED 0 0
STUDIO PROJECT LIMITED 34 CLAREMONT ROAD, WESTCLIFF-ON-SEA, ENGLAND, SS0 7DZ 0 0
SUNNY BLUE SKIES LTD 152 - 160 CITY ROAD, SUNNY BLUE SKIES LTD, KEMP HOUSE, LONDON, UNITED KINGDOM, EC1V 2NX 0 0
BAY MEDIA LTD 0 0
WRT HOLDINGS LIMITED 0 0
WARL INTERNAL COMMUNICATIONS LIMITED 0 0
PROMOFAX LIMITED 0 0
GLOBAL SOLUTIONS OUTSOURCING LTD 0 0
AMPLIFY MARKETING GROUP LTD 0 0
ROCKBOX LIMITED 0 0
STUDIO 77 LIMITED 63/66 HATTON GARDEN, FIFTH FLOOR SUITE 23, LONDON, ENGLAND, EC1N 8LE 0 0
WILSON BRIDGES & TRACE LIMITED 0 0
REFLEX ADVERTISING LIMITED 0 0
SILKONIA.CO.UK LIMITED 0 0
OAKBASE INTEGRATED MARKETING LIMITED 0 0
CHEETHAM BELL JWT LIMITED 0 0
STUDIO BRINK LTD 2 KINGS ROAD, LONDON COLNEY, HERTS, ENGLAND, AL2 1EN 0 0
QUE PASA COMMUNICATIONS LIMITED 0 0
HARRISONS LIMITED 0 0
LEEPECK GROUP LTD 0 0
BATHRIDGE LTD. 0 0
STUDIO FARMILOE LTD 17 ALPERTON STREET, LONDON, ENGLAND, W10 4NG 0 0
SUMMER CREATIVE AGENCY LIMITED 32 SEYMOUR ROAD, EAST MOLESEY, SURREY, KT8 0PB 0 0
SUGIMCO LIMITED 79 GATEWAY APARTMENTS 11 STATION APPROACH, HOE STREET, LONDON, ENGLAND, E17 9SL 0 0
BEYOND INTERACTIVE LIMITED 0 0
WEDNESDAY LONDON LIMITED 0 0
TARGET LIVE LIMITED 0 0
CARING AND SUPPORT TODAY LIMITED 0 0
SPEEDWELL MAILING LTD 0 0
AVIAN COMMUNICATIONS LIMITED 0 0
SUMO MARKETING LIMITED 40 FAWE PARK ROAD, LONDON, UNITED KINGDOM, SW15 2EA 0 0
SCOTTISH RADIO HOLDINGS LIMITED 0 0
INTERTEMP LIMITED 0 0
PINK DAYS LIMITED 0 0
CUBE3 DIGITAL LTD 0 0
I. INVESTMENT PARTNERS LTD 0 0
LIFE ADVERTISING LTD 0 0
SUNDERLAND LEAFLET DISTRIBUTION LTD UNIT 10 BREWERY LANE, FELLING, GATESHEAD, TYNE AND WEAR, NE10 0EY 0 0
E.B.N. INTERNATIONAL LIMITED 0 0
CANDYSPACE MEDIA LTD 0 0
GLOBAL ANALYSIS REPORT LTD 0 0
LONDON HASTINGS LTD 0 0
EDGE LOYALTY EUROPE LIMITED 0 0
STUDENT JUSTICE LIMITED 14 BRIERY MEADOWS, HEMINGFIELD, BARNSLEY, UNITED KINGDOM, S73 0QW 0 0
SUCCEED WITH MIRELLE LTD 38 LYNMOUTH, LONDON, UNITED KINGDOM, N16 6XL 0 0
SUBLIME WINE LIMITED UNIT 15 BRICKFIELD LANE, CHANDLER'S FORD, EASTLEIGH, UNITED KINGDOM, SO53 4DR 0 0
URBAN AND PROVINCIAL OUTDOOR ADVERTISING LIMITED 0 0
4 SECONDS LIMITED 0 0
STUDIO XYZ LTD LOCATION HOUSE, VICTORIA HOUSE, 37 SOUTHAMPTON ROW, LONDON, ENGLAND, WC1B 4DA 0 0
MEDIAMART LIMITED 0 0
SUFFOLK DIGITAL MARKETING LTD 12 BIRCH ROAD, ONEHOUSE, STOWMARKET, ENGLAND, IP14 3EZ 0 0
CONNECTION2 LTD 0 0
SONUS PUBLIC RELATIONS LIMITED 0 0
REVCONTENT UK LTD 0 0
ABLEDALE LTD 0 0
M&C SAATCHI (UK) LIMITED 0 0
SUGAR BRANDED LTD 27-29 BALDWIN STREET, BALDWIN STREET, BRISTOL, ENGLAND, BS1 1LT 0 0
FREESTYLE MARKETING COMMUNICATIONS LIMITED 0 0
ICOMMS MEDIA GROUP LIMITED 0 0
C THREE MARKETING LTD 0 0
BARABINO & PARTNERS UK PLC 0 0
JOLLY UNITED LIMITED 0 0
JAMIE LAWRENCE DESIGN LIMITED 0 0
SOUND MEDIA LIMITED 0 0
STUTTARDS MEDIA LTD 59 MAIN STREET MAIN STREET, CUMBERNAULD, GLASGOW, SCOTLAND, G67 2RT 0 0
RETAIL MARKETING PARTNERSHIP LIMITED 0 0
GARRECK DIRECT COMMUNICATIONS LIMITED 0 0
PARTYPROMO LTD. 0 0
MOBILE LOYALTY PLC 0 0
THE CENTRAL LDN LIMITED 0 0
A J P PUBLISHING LIMITED 0 0
STYLIST GLOBAL LIMITED 10 WOOLSINGTON CLOSE,, NOTTINGHAM,, UNITED KINGDOM, NG8 6NZ 0 0
MOSTLY MEDIA EUROPE LIMITED 0 0
KICAREDS LIMITED 0 0
WORKSHOP CONSULTANCY LIMITED 0 0
ADBRAIN LTD 0 0
HELLER PRODUCTION LTD 0 0
SUBPIXEL LTD SPRINGWOOD HOUSE LOW LANE, HORSFORTH, LEEDS, WEST YORKSHIRE, LS18 5NU 0 0
STUDIO OF SIR LTD 29 CRAWFORD COMPTON CLOSE, HORNCHURCH, ENGLAND, RM12 6UA 0 0
LAMBIE-NAIRN & COMPANY LIMITED 0 0
BEARPARK PUBLISHING LIMITED 0 0
INTERCOM UK LIMITED 0 0
KOJONES LIMITED 0 0
TRND LTD 0 0
COMUNICO GROUP LTD. 0 0
IMTL MEMBER SHARES LIMITED 0 0
ISTHMUS COMMUNICATIONS LIMITED 0 0
STUDIO SQUEEZE LTD FLAT 2 SYCAMORE HOUSE FINCHES LANE, TWYFORD, WINCHESTER, ENGLAND, SO21 1QB 0 0
DOREMUS & COMPANY LIMITED 0 0
EXPERIENCE WORLDWIDE LIMITED 0 0
PUBLICIS MEDIA EXCHANGE LIMITED 0 0
ADAMASTOR DIGITAL ART LIMITED 0 0
FRESH PAGE LIMITED 0 0
STAND AGENCY LIMITED 0 0
LIVELY WORLDWIDE LIMITED 0 0
QUINTEL MARKETING SERVICES LTD 0 0
MEDIAEDGE:CIA UK INVESTMENTS LIMITED 0 0
STUDIO29 DESIGN LTD 33 HARRISON ROAD, HALIFAX, HX1 2AF 0 0
2THECITY LTD 0 0
EUROPEAN AGRICULTURAL PARTNERS LTD 0 0
JOSHUA DESIGN GROUP LIMITED 0 0
STUDYSPACE GLOBAL LTD FLAT11 MASEFIELD COURT, 111C SHIRLAND ROAD, LONDON, UNITED KINGDOM, W9 2EJ 0 0
STUDIO ELSEWHERE LTD F25 WATERFRONT STUDIOS, 1 DOCK ROAD, LONDON, UNITED KINGDOM, E16 1AH 0 0
NAVIGATOR DDB LIMITED 0 0
SPORTS GOALS LTD 0 0
TRADETRACKER UK LIMITED 0 0
EKO 4 GLOBAL SERVICES LIMITED 0 0
CONATUS GROUP LIMITED 0 0
BLACK CAT RMG:CONNECT LIMITED 0 0
STUDIO II LIMITED 18 CUDNALL STREET, CHARLTON KINGS, CHELTENHAM, ENGLAND, GL53 8HT 0 0
DENT MEDIA LIMITED 0 0
RED INTERACTIVE LIMITED 0 0
THE CLASSICAL AD NETWORK LIMITED 0 0
DESIRE BRANDS LTD 0 0
EDC STRATEGIC COMMUNICATIONS LIMITED 0 0
STUDIO MOLGA LTD 9 ADDINGTON STREET, MARGATE, KENT, UNITED KINGDOM, CT9 1PN 0 0
GUERILLASCOPE LIMITED 0 0
CONTENTWORX LTD 0 0
DUMAS INVESTMENTS LIMITED 0 0
IRIS WORLDWIDE HOLDINGS LIMITED 0 0
PALETTE OFFICIAL LIMITED 0 0
STUDIO RCW LIMITED HUCKLETREE, EXPRESS BUILDING, 3 GEORGE LEIGH STREET, MANCHESTER, ENGLAND, M4 5DL 0 0
SUNNY MARKETING LTD 20-22 WENLOCK ROAD, LONDON, ENGLAND, N1 7GU 0 0
SUNCHI DOES ART DIRECTION LTD. STUDIO 34, 46 MORRIS ROAD, LONDON, POPLAR, UNITED KINGDOM, E14 6NQ 0 0
VIVID DESIGN CONSULTANTS LTD 0 0
ANTIDOTE LIMITED 0 0
CULTURESHOT MEDIA LTD 0 0
BIG DOG (SERVICES) LIMITED 0 0
M&C SAATCHI MIDDLE EAST HOLDCO LIMITED 0 0
MC LIVE! LIMITED 0 0
STILTON ADVERTISING LIMITED 0 0
STUDIO 8 BOUTIQUE LIVING LTD WARLIES PARK HOUSE, HORSESHOE HILL, UPSHIRE, ESSEX, UNITED KINGDOM, EN9 3SL 0 0
239 OMR LIMITED 0 0
MEDIAEDGE:CIA INTERNATIONAL INVESTMENTS LIMITED 0 0
NIRVANA SOLUTIONS LIMITED 0 0
MARKETING IQ LIMITED 0 0
MULLENLOWE PROFERO PERFORMANCE LIMITED 0 0
MAGPIE DIGITAL SOLUTIONS LIMITED 0 0
GDR CREATIVE INTELLIGENCE LTD 0 0
STUDIO BUZZWORD LTD 16 HALL FARM CLOSE, RICCALL, YORK, UNITED KINGDOM, YO19 6NT 0 0
FRESH AD COMMUNICATIONS LIMITED 0 0
MKT HUB LTD 0 0
EURODISCS LTD 0 0
PROSPECTUS MANAGEMENT LIMITED 0 0
CONVERGENSEE (UK) LTD. 0 0
STUDIO FIELD LTD 2.19A DALE STREET, MANCHESTER, ENGLAND, M1 2HS 0 0
SUMMER CREATIVE LIMITED SUMMER CREATIVE LIMITED, 34 OLD BATH ROAD, CHARVIL, READING, BERKSHIRE, RG10 9QR 0 0
SUGIYAMA CONSULTING LIMITED 12 C PEABODY BUILDINGS, FARRINGDON LANE, LONDON, ENGLAND, EC1R 3BB 0 0
POLES PRODUCTION & COMMUNICATION LIMITED 0 0
BAND HOLDINGS LIMITED 0 0
FREELANCESUPERMARKET LIMITED 0 0
OY-UK LTD 0 0
MODUS ADVERTISING LIMITED 0 0
MADAM M LIMITED 0 0
TAMAR.COM LIMITED 0 0
SUMO MARKETING SERVICES LTD SUMO HQ CLAVERING HOUSE, CLAVERING PLACE, NEWCASTLE, UNITED KINGDOM, NE1 3NG 0 0
ROBERT GUY SERVICES LIMITED 0 0
DESPERATESELLER.CO.UK LIMITED 0 0
HAYDON TAYLOR LIMITED 0 0